<?xml version="1.0" encoding="UTF-8" standalone="no" ?>
<gpx xmlns="http://www.topografix.com/GPX/1/1" xmlns:xsi="http://www.w3.org/2001/XMLSchema-instance" xsi:schemaLocation="http://www.topografix.com/GPX/1/1 http://www.topografix.com/GPX/1/1/gpx.xsd" version="1.1" creator="VisuGPX - https://www.visugpx.com">
  <metadata>
    <name>schwartzwald bike 60</name>
    <desc><![CDATA[VOILAVOILA VOILA la belle de septembre]]></desc>
  </metadata>
  <trk>
    <name><![CDATA[Sbm2015_60er-ascii on GPSies.com]]></name>
    <trkseg>
      <trkpt lat="48.05149" lon="8.20668">
        <ele>862.6</ele>
        <time>2010-01-01T00:00:00Z</time>
      </trkpt>
      <trkpt lat="48.05139" lon="8.20682">
        <ele>863</ele>
        <time>2010-01-01T00:00:05Z</time>
      </trkpt>
      <trkpt lat="48.05122" lon="8.20713">
        <ele>862.1</ele>
        <time>2010-01-01T00:00:16Z</time>
      </trkpt>
      <trkpt lat="48.05107" lon="8.2074">
        <ele>859.3</ele>
        <time>2010-01-01T00:00:25Z</time>
      </trkpt>
      <trkpt lat="48.05091" lon="8.20686">
        <ele>862.8</ele>
        <time>2010-01-01T00:00:41Z</time>
      </trkpt>
      <trkpt lat="48.05077" lon="8.20618">
        <ele>864.9</ele>
        <time>2010-01-01T00:01:00Z</time>
      </trkpt>
      <trkpt lat="48.04994" lon="8.20619">
        <ele>861</ele>
        <time>2010-01-01T00:01:33Z</time>
      </trkpt>
      <trkpt lat="48.04952" lon="8.20634">
        <ele>859.8</ele>
        <time>2010-01-01T00:01:50Z</time>
      </trkpt>
      <trkpt lat="48.04903" lon="8.20659">
        <ele>861</ele>
        <time>2010-01-01T00:02:11Z</time>
      </trkpt>
      <trkpt lat="48.04892" lon="8.20676">
        <ele>861</ele>
        <time>2010-01-01T00:02:18Z</time>
      </trkpt>
      <trkpt lat="48.04867" lon="8.20701">
        <ele>860.3</ele>
        <time>2010-01-01T00:02:29Z</time>
      </trkpt>
      <trkpt lat="48.04856" lon="8.20719">
        <ele>862.2</ele>
        <time>2010-01-01T00:02:36Z</time>
      </trkpt>
      <trkpt lat="48.04836" lon="8.20669">
        <ele>863.9</ele>
        <time>2010-01-01T00:02:52Z</time>
      </trkpt>
      <trkpt lat="48.04793" lon="8.20527">
        <ele>872.1</ele>
        <time>2010-01-01T00:03:33Z</time>
      </trkpt>
      <trkpt lat="48.04751" lon="8.20374">
        <ele>871.2</ele>
        <time>2010-01-01T00:04:17Z</time>
      </trkpt>
      <trkpt lat="48.04703" lon="8.20219">
        <ele>867.5</ele>
        <time>2010-01-01T00:05:03Z</time>
      </trkpt>
      <trkpt lat="48.0467" lon="8.20075">
        <ele>869.8</ele>
        <time>2010-01-01T00:05:44Z</time>
      </trkpt>
      <trkpt lat="48.04632" lon="8.19937">
        <ele>871.7</ele>
        <time>2010-01-01T00:06:24Z</time>
      </trkpt>
      <trkpt lat="48.0461" lon="8.19864">
        <ele>868.5</ele>
        <time>2010-01-01T00:06:45Z</time>
      </trkpt>
      <trkpt lat="48.04591" lon="8.19796">
        <ele>866.8</ele>
        <time>2010-01-01T00:07:05Z</time>
      </trkpt>
      <trkpt lat="48.04579" lon="8.19763">
        <ele>867.7</ele>
        <time>2010-01-01T00:07:15Z</time>
      </trkpt>
      <trkpt lat="48.04542" lon="8.19732">
        <ele>868.7</ele>
        <time>2010-01-01T00:07:32Z</time>
      </trkpt>
      <trkpt lat="48.04514" lon="8.1964">
        <ele>871.5</ele>
        <time>2010-01-01T00:07:59Z</time>
      </trkpt>
      <trkpt lat="48.04462" lon="8.19475">
        <ele>874</ele>
        <time>2010-01-01T00:08:48Z</time>
      </trkpt>
      <trkpt lat="48.04442" lon="8.19388">
        <ele>876.8</ele>
        <time>2010-01-01T00:09:13Z</time>
      </trkpt>
      <trkpt lat="48.04421" lon="8.19302">
        <ele>876.6</ele>
        <time>2010-01-01T00:09:37Z</time>
      </trkpt>
      <trkpt lat="48.04415" lon="8.19247">
        <ele>878.2</ele>
        <time>2010-01-01T00:09:52Z</time>
      </trkpt>
      <trkpt lat="48.04421" lon="8.19215">
        <ele>880.5</ele>
        <time>2010-01-01T00:10:01Z</time>
      </trkpt>
      <trkpt lat="48.04428" lon="8.19175">
        <ele>882.4</ele>
        <time>2010-01-01T00:10:12Z</time>
      </trkpt>
      <trkpt lat="48.0437" lon="8.19188">
        <ele>882.6</ele>
        <time>2010-01-01T00:10:35Z</time>
      </trkpt>
      <trkpt lat="48.0429" lon="8.19134">
        <ele>888.5</ele>
        <time>2010-01-01T00:11:11Z</time>
      </trkpt>
      <trkpt lat="48.04191" lon="8.19077">
        <ele>893.2</ele>
        <time>2010-01-01T00:11:53Z</time>
      </trkpt>
      <trkpt lat="48.04087" lon="8.19072">
        <ele>884.4</ele>
        <time>2010-01-01T00:12:35Z</time>
      </trkpt>
      <trkpt lat="48.03969" lon="8.19064">
        <ele>883.9</ele>
        <time>2010-01-01T00:13:22Z</time>
      </trkpt>
      <trkpt lat="48.03941" lon="8.19081">
        <ele>884.1</ele>
        <time>2010-01-01T00:13:34Z</time>
      </trkpt>
      <trkpt lat="48.03912" lon="8.1911">
        <ele>882.2</ele>
        <time>2010-01-01T00:13:48Z</time>
      </trkpt>
      <trkpt lat="48.03898" lon="8.19089">
        <ele>882.9</ele>
        <time>2010-01-01T00:13:56Z</time>
      </trkpt>
      <trkpt lat="48.03871" lon="8.19091">
        <ele>884.8</ele>
        <time>2010-01-01T00:14:07Z</time>
      </trkpt>
      <trkpt lat="48.03845" lon="8.19107">
        <ele>885.6</ele>
        <time>2010-01-01T00:14:18Z</time>
      </trkpt>
      <trkpt lat="48.03787" lon="8.19092">
        <ele>887.8</ele>
        <time>2010-01-01T00:14:42Z</time>
      </trkpt>
      <trkpt lat="48.03769" lon="8.19053">
        <ele>889.8</ele>
        <time>2010-01-01T00:14:55Z</time>
      </trkpt>
      <trkpt lat="48.0374" lon="8.18984">
        <ele>891.9</ele>
        <time>2010-01-01T00:15:16Z</time>
      </trkpt>
      <trkpt lat="48.03721" lon="8.18945">
        <ele>892.6</ele>
        <time>2010-01-01T00:15:29Z</time>
      </trkpt>
      <trkpt lat="48.03644" lon="8.18883">
        <ele>898.4</ele>
        <time>2010-01-01T00:16:04Z</time>
      </trkpt>
      <trkpt lat="48.03572" lon="8.18834">
        <ele>904.3</ele>
        <time>2010-01-01T00:16:36Z</time>
      </trkpt>
      <trkpt lat="48.03451" lon="8.18761">
        <ele>909.4</ele>
        <time>2010-01-01T00:17:28Z</time>
      </trkpt>
      <trkpt lat="48.03421" lon="8.18724">
        <ele>904.9</ele>
        <time>2010-01-01T00:17:44Z</time>
      </trkpt>
      <trkpt lat="48.03391" lon="8.18661">
        <ele>902</ele>
        <time>2010-01-01T00:18:04Z</time>
      </trkpt>
      <trkpt lat="48.03359" lon="8.18656">
        <ele>902.8</ele>
        <time>2010-01-01T00:18:17Z</time>
      </trkpt>
      <trkpt lat="48.03314" lon="8.18655">
        <ele>908.9</ele>
        <time>2010-01-01T00:18:35Z</time>
      </trkpt>
      <trkpt lat="48.03287" lon="8.18651">
        <ele>913.5</ele>
        <time>2010-01-01T00:18:46Z</time>
      </trkpt>
      <trkpt lat="48.03253" lon="8.18654">
        <ele>916.8</ele>
        <time>2010-01-01T00:19:00Z</time>
      </trkpt>
      <trkpt lat="48.03174" lon="8.18681">
        <ele>911.7</ele>
        <time>2010-01-01T00:19:32Z</time>
      </trkpt>
      <trkpt lat="48.03106" lon="8.18679">
        <ele>913.5</ele>
        <time>2010-01-01T00:19:59Z</time>
      </trkpt>
      <trkpt lat="48.03063" lon="8.18684">
        <ele>919.2</ele>
        <time>2010-01-01T00:20:17Z</time>
      </trkpt>
      <trkpt lat="48.02976" lon="8.18714">
        <ele>928</ele>
        <time>2010-01-01T00:20:52Z</time>
      </trkpt>
      <trkpt lat="48.02903" lon="8.18726">
        <ele>937.1</ele>
        <time>2010-01-01T00:21:22Z</time>
      </trkpt>
      <trkpt lat="48.02874" lon="8.18749">
        <ele>933.3</ele>
        <time>2010-01-01T00:21:35Z</time>
      </trkpt>
      <trkpt lat="48.02859" lon="8.18791">
        <ele>928.3</ele>
        <time>2010-01-01T00:21:48Z</time>
      </trkpt>
      <trkpt lat="48.02848" lon="8.18812">
        <ele>929</ele>
        <time>2010-01-01T00:21:55Z</time>
      </trkpt>
      <trkpt lat="48.02818" lon="8.1885">
        <ele>934</ele>
        <time>2010-01-01T00:22:11Z</time>
      </trkpt>
      <trkpt lat="48.02765" lon="8.18878">
        <ele>940.8</ele>
        <time>2010-01-01T00:22:33Z</time>
      </trkpt>
      <trkpt lat="48.02738" lon="8.18903">
        <ele>945.4</ele>
        <time>2010-01-01T00:22:46Z</time>
      </trkpt>
      <trkpt lat="48.0271" lon="8.18913">
        <ele>947.5</ele>
        <time>2010-01-01T00:22:57Z</time>
      </trkpt>
      <trkpt lat="48.02671" lon="8.18914">
        <ele>948.6</ele>
        <time>2010-01-01T00:23:13Z</time>
      </trkpt>
      <trkpt lat="48.02608" lon="8.18929">
        <ele>952.4</ele>
        <time>2010-01-01T00:23:38Z</time>
      </trkpt>
      <trkpt lat="48.02563" lon="8.18943">
        <ele>958.1</ele>
        <time>2010-01-01T00:23:57Z</time>
      </trkpt>
      <trkpt lat="48.02537" lon="8.18949">
        <ele>960.1</ele>
        <time>2010-01-01T00:24:07Z</time>
      </trkpt>
      <trkpt lat="48.02508" lon="8.18957">
        <ele>964</ele>
        <time>2010-01-01T00:24:19Z</time>
      </trkpt>
      <trkpt lat="48.02468" lon="8.18958">
        <ele>970.4</ele>
        <time>2010-01-01T00:24:35Z</time>
      </trkpt>
      <trkpt lat="48.02431" lon="8.18952">
        <ele>974.7</ele>
        <time>2010-01-01T00:24:50Z</time>
      </trkpt>
      <trkpt lat="48.02402" lon="8.18949">
        <ele>977.4</ele>
        <time>2010-01-01T00:25:02Z</time>
      </trkpt>
      <trkpt lat="48.02342" lon="8.18945">
        <ele>979</ele>
        <time>2010-01-01T00:25:26Z</time>
      </trkpt>
      <trkpt lat="48.02322" lon="8.18935">
        <ele>978.2</ele>
        <time>2010-01-01T00:25:34Z</time>
      </trkpt>
      <trkpt lat="48.02259" lon="8.18919">
        <ele>980.3</ele>
        <time>2010-01-01T00:26:00Z</time>
      </trkpt>
      <trkpt lat="48.02256" lon="8.18882">
        <ele>980.6</ele>
        <time>2010-01-01T00:26:10Z</time>
      </trkpt>
      <trkpt lat="48.02237" lon="8.18811">
        <ele>978.8</ele>
        <time>2010-01-01T00:26:30Z</time>
      </trkpt>
      <trkpt lat="48.0222" lon="8.18682">
        <ele>969.8</ele>
        <time>2010-01-01T00:27:05Z</time>
      </trkpt>
      <trkpt lat="48.02209" lon="8.18635">
        <ele>969</ele>
        <time>2010-01-01T00:27:19Z</time>
      </trkpt>
      <trkpt lat="48.02172" lon="8.18541">
        <ele>969.4</ele>
        <time>2010-01-01T00:27:48Z</time>
      </trkpt>
      <trkpt lat="48.02134" lon="8.18491">
        <ele>967.1</ele>
        <time>2010-01-01T00:28:08Z</time>
      </trkpt>
      <trkpt lat="48.02079" lon="8.18429">
        <ele>962.9</ele>
        <time>2010-01-01T00:28:36Z</time>
      </trkpt>
      <trkpt lat="48.02009" lon="8.18406">
        <ele>968</ele>
        <time>2010-01-01T00:29:04Z</time>
      </trkpt>
      <trkpt lat="48.01947" lon="8.18393">
        <ele>958.8</ele>
        <time>2010-01-01T00:29:30Z</time>
      </trkpt>
      <trkpt lat="48.01932" lon="8.1837">
        <ele>959</ele>
        <time>2010-01-01T00:29:38Z</time>
      </trkpt>
      <trkpt lat="48.01823" lon="8.18122">
        <ele>957.2</ele>
        <time>2010-01-01T00:30:58Z</time>
      </trkpt>
      <trkpt lat="48.01793" lon="8.18077">
        <ele>951.6</ele>
        <time>2010-01-01T00:31:15Z</time>
      </trkpt>
      <trkpt lat="48.01781" lon="8.1802">
        <ele>951.3</ele>
        <time>2010-01-01T00:31:31Z</time>
      </trkpt>
      <trkpt lat="48.01784" lon="8.17925">
        <ele>953.3</ele>
        <time>2010-01-01T00:31:56Z</time>
      </trkpt>
      <trkpt lat="48.01803" lon="8.17862">
        <ele>948.7</ele>
        <time>2010-01-01T00:32:14Z</time>
      </trkpt>
      <trkpt lat="48.01886" lon="8.17754">
        <ele>949.4</ele>
        <time>2010-01-01T00:32:58Z</time>
      </trkpt>
      <trkpt lat="48.01904" lon="8.17712">
        <ele>945.8</ele>
        <time>2010-01-01T00:33:12Z</time>
      </trkpt>
      <trkpt lat="48.01928" lon="8.17671">
        <ele>942.9</ele>
        <time>2010-01-01T00:33:26Z</time>
      </trkpt>
      <trkpt lat="48.01967" lon="8.17662">
        <ele>944.3</ele>
        <time>2010-01-01T00:33:42Z</time>
      </trkpt>
      <trkpt lat="48.01997" lon="8.17653">
        <ele>945.3</ele>
        <time>2010-01-01T00:33:55Z</time>
      </trkpt>
      <trkpt lat="48.02047" lon="8.17651">
        <ele>946.4</ele>
        <time>2010-01-01T00:34:15Z</time>
      </trkpt>
      <trkpt lat="48.02127" lon="8.17609">
        <ele>951.2</ele>
        <time>2010-01-01T00:34:48Z</time>
      </trkpt>
      <trkpt lat="48.02169" lon="8.17578">
        <ele>952.9</ele>
        <time>2010-01-01T00:35:07Z</time>
      </trkpt>
      <trkpt lat="48.02285" lon="8.17545">
        <ele>956.8</ele>
        <time>2010-01-01T00:35:54Z</time>
      </trkpt>
      <trkpt lat="48.02327" lon="8.17535">
        <ele>960.5</ele>
        <time>2010-01-01T00:36:11Z</time>
      </trkpt>
      <trkpt lat="48.02356" lon="8.17522">
        <ele>960.4</ele>
        <time>2010-01-01T00:36:24Z</time>
      </trkpt>
      <trkpt lat="48.02344" lon="8.1751">
        <ele>959.4</ele>
        <time>2010-01-01T00:36:29Z</time>
      </trkpt>
      <trkpt lat="48.02336" lon="8.17497">
        <ele>958.6</ele>
        <time>2010-01-01T00:36:34Z</time>
      </trkpt>
      <trkpt lat="48.02322" lon="8.17477">
        <ele>956</ele>
        <time>2010-01-01T00:36:42Z</time>
      </trkpt>
      <trkpt lat="48.02299" lon="8.17449">
        <ele>955.3</ele>
        <time>2010-01-01T00:36:54Z</time>
      </trkpt>
      <trkpt lat="48.02309" lon="8.1744">
        <ele>956.2</ele>
        <time>2010-01-01T00:36:58Z</time>
      </trkpt>
      <trkpt lat="48.02318" lon="8.17434">
        <ele>956.3</ele>
        <time>2010-01-01T00:37:02Z</time>
      </trkpt>
      <trkpt lat="48.02331" lon="8.17425">
        <ele>956.5</ele>
        <time>2010-01-01T00:37:08Z</time>
      </trkpt>
      <trkpt lat="48.02347" lon="8.17416">
        <ele>956.6</ele>
        <time>2010-01-01T00:37:15Z</time>
      </trkpt>
      <trkpt lat="48.02369" lon="8.17403">
        <ele>957.5</ele>
        <time>2010-01-01T00:37:24Z</time>
      </trkpt>
      <trkpt lat="48.02414" lon="8.1737">
        <ele>957</ele>
        <time>2010-01-01T00:37:44Z</time>
      </trkpt>
      <trkpt lat="48.02451" lon="8.17333">
        <ele>959.2</ele>
        <time>2010-01-01T00:38:02Z</time>
      </trkpt>
      <trkpt lat="48.02481" lon="8.17309">
        <ele>960.9</ele>
        <time>2010-01-01T00:38:16Z</time>
      </trkpt>
      <trkpt lat="48.02505" lon="8.17293">
        <ele>963.1</ele>
        <time>2010-01-01T00:38:26Z</time>
      </trkpt>
      <trkpt lat="48.02464" lon="8.17252">
        <ele>966.7</ele>
        <time>2010-01-01T00:38:46Z</time>
      </trkpt>
      <trkpt lat="48.02435" lon="8.17214">
        <ele>970.1</ele>
        <time>2010-01-01T00:39:02Z</time>
      </trkpt>
      <trkpt lat="48.02323" lon="8.17271">
        <ele>971</ele>
        <time>2010-01-01T00:39:49Z</time>
      </trkpt>
      <trkpt lat="48.02302" lon="8.17239">
        <ele>970.9</ele>
        <time>2010-01-01T00:40:01Z</time>
      </trkpt>
      <trkpt lat="48.0206" lon="8.17328">
        <ele>974.3</ele>
        <time>2010-01-01T00:41:41Z</time>
      </trkpt>
      <trkpt lat="48.02007" lon="8.17358">
        <ele>984.6</ele>
        <time>2010-01-01T00:42:03Z</time>
      </trkpt>
      <trkpt lat="48.01971" lon="8.17231">
        <ele>982.7</ele>
        <time>2010-01-01T00:42:41Z</time>
      </trkpt>
      <trkpt lat="48.0195" lon="8.17161">
        <ele>976.3</ele>
        <time>2010-01-01T00:43:01Z</time>
      </trkpt>
      <trkpt lat="48.01923" lon="8.17095">
        <ele>968.9</ele>
        <time>2010-01-01T00:43:22Z</time>
      </trkpt>
      <trkpt lat="48.01887" lon="8.1701">
        <ele>985.6</ele>
        <time>2010-01-01T00:43:49Z</time>
      </trkpt>
      <trkpt lat="48.01811" lon="8.16893">
        <ele>991.3</ele>
        <time>2010-01-01T00:44:32Z</time>
      </trkpt>
      <trkpt lat="48.01778" lon="8.16865">
        <ele>987.6</ele>
        <time>2010-01-01T00:44:47Z</time>
      </trkpt>
      <trkpt lat="48.01693" lon="8.16826">
        <ele>973.4</ele>
        <time>2010-01-01T00:45:23Z</time>
      </trkpt>
      <trkpt lat="48.01671" lon="8.16794">
        <ele>969.5</ele>
        <time>2010-01-01T00:45:35Z</time>
      </trkpt>
      <trkpt lat="48.01647" lon="8.16714">
        <ele>961.5</ele>
        <time>2010-01-01T00:45:59Z</time>
      </trkpt>
      <trkpt lat="48.01642" lon="8.16682">
        <ele>960</ele>
        <time>2010-01-01T00:46:08Z</time>
      </trkpt>
      <trkpt lat="48.01648" lon="8.16641">
        <ele>958.2</ele>
        <time>2010-01-01T00:46:19Z</time>
      </trkpt>
      <trkpt lat="48.01682" lon="8.16587">
        <ele>959.8</ele>
        <time>2010-01-01T00:46:39Z</time>
      </trkpt>
      <trkpt lat="48.01703" lon="8.16551">
        <ele>961.5</ele>
        <time>2010-01-01T00:46:52Z</time>
      </trkpt>
      <trkpt lat="48.01712" lon="8.16495">
        <ele>959.4</ele>
        <time>2010-01-01T00:47:07Z</time>
      </trkpt>
      <trkpt lat="48.01728" lon="8.16472">
        <ele>960.4</ele>
        <time>2010-01-01T00:47:16Z</time>
      </trkpt>
      <trkpt lat="48.01761" lon="8.16461">
        <ele>958.7</ele>
        <time>2010-01-01T00:47:29Z</time>
      </trkpt>
      <trkpt lat="48.0179" lon="8.16476">
        <ele>956.8</ele>
        <time>2010-01-01T00:47:42Z</time>
      </trkpt>
      <trkpt lat="48.01856" lon="8.16583">
        <ele>963.2</ele>
        <time>2010-01-01T00:48:20Z</time>
      </trkpt>
      <trkpt lat="48.01919" lon="8.16599">
        <ele>957</ele>
        <time>2010-01-01T00:48:46Z</time>
      </trkpt>
      <trkpt lat="48.01966" lon="8.16653">
        <ele>961.4</ele>
        <time>2010-01-01T00:49:10Z</time>
      </trkpt>
      <trkpt lat="48.02021" lon="8.16692">
        <ele>956.1</ele>
        <time>2010-01-01T00:49:34Z</time>
      </trkpt>
      <trkpt lat="48.02048" lon="8.1673">
        <ele>956.9</ele>
        <time>2010-01-01T00:49:49Z</time>
      </trkpt>
      <trkpt lat="48.02081" lon="8.16761">
        <ele>963.3</ele>
        <time>2010-01-01T00:50:05Z</time>
      </trkpt>
      <trkpt lat="48.02104" lon="8.16754">
        <ele>963.2</ele>
        <time>2010-01-01T00:50:14Z</time>
      </trkpt>
      <trkpt lat="48.02118" lon="8.16721">
        <ele>961.2</ele>
        <time>2010-01-01T00:50:25Z</time>
      </trkpt>
      <trkpt lat="48.02141" lon="8.1669">
        <ele>961.8</ele>
        <time>2010-01-01T00:50:37Z</time>
      </trkpt>
      <trkpt lat="48.02163" lon="8.1669">
        <ele>964.2</ele>
        <time>2010-01-01T00:50:46Z</time>
      </trkpt>
      <trkpt lat="48.02194" lon="8.16714">
        <ele>963.5</ele>
        <time>2010-01-01T00:51:00Z</time>
      </trkpt>
      <trkpt lat="48.02218" lon="8.16741">
        <ele>952.4</ele>
        <time>2010-01-01T00:51:12Z</time>
      </trkpt>
      <trkpt lat="48.02264" lon="8.16792">
        <ele>939.5</ele>
        <time>2010-01-01T00:51:35Z</time>
      </trkpt>
      <trkpt lat="48.02288" lon="8.16808">
        <ele>940.6</ele>
        <time>2010-01-01T00:51:45Z</time>
      </trkpt>
      <trkpt lat="48.02321" lon="8.16803">
        <ele>942.1</ele>
        <time>2010-01-01T00:51:59Z</time>
      </trkpt>
      <trkpt lat="48.02344" lon="8.16815">
        <ele>943.7</ele>
        <time>2010-01-01T00:52:08Z</time>
      </trkpt>
      <trkpt lat="48.02347" lon="8.16737">
        <ele>945.5</ele>
        <time>2010-01-01T00:52:29Z</time>
      </trkpt>
      <trkpt lat="48.0238" lon="8.1688">
        <ele>945.5</ele>
        <time>2010-01-01T00:53:10Z</time>
      </trkpt>
      <trkpt lat="48.02401" lon="8.16933">
        <ele>952.7</ele>
        <time>2010-01-01T00:53:26Z</time>
      </trkpt>
      <trkpt lat="48.02434" lon="8.1694">
        <ele>959</ele>
        <time>2010-01-01T00:53:40Z</time>
      </trkpt>
      <trkpt lat="48.02475" lon="8.16949">
        <ele>970.6</ele>
        <time>2010-01-01T00:53:56Z</time>
      </trkpt>
      <trkpt lat="48.02528" lon="8.1698">
        <ele>972.5</ele>
        <time>2010-01-01T00:54:19Z</time>
      </trkpt>
      <trkpt lat="48.02587" lon="8.17015">
        <ele>968.2</ele>
        <time>2010-01-01T00:54:45Z</time>
      </trkpt>
      <trkpt lat="48.02611" lon="8.17042">
        <ele>962.5</ele>
        <time>2010-01-01T00:54:57Z</time>
      </trkpt>
      <trkpt lat="48.02633" lon="8.17101">
        <ele>960.2</ele>
        <time>2010-01-01T00:55:15Z</time>
      </trkpt>
      <trkpt lat="48.02631" lon="8.17128">
        <ele>961.5</ele>
        <time>2010-01-01T00:55:22Z</time>
      </trkpt>
      <trkpt lat="48.02637" lon="8.17209">
        <ele>956.6</ele>
        <time>2010-01-01T00:55:44Z</time>
      </trkpt>
      <trkpt lat="48.02601" lon="8.17264">
        <ele>956.8</ele>
        <time>2010-01-01T00:56:04Z</time>
      </trkpt>
      <trkpt lat="48.02562" lon="8.17297">
        <ele>959.9</ele>
        <time>2010-01-01T00:56:22Z</time>
      </trkpt>
      <trkpt lat="48.0261" lon="8.1731">
        <ele>956.6</ele>
        <time>2010-01-01T00:56:42Z</time>
      </trkpt>
      <trkpt lat="48.02667" lon="8.17295">
        <ele>951</ele>
        <time>2010-01-01T00:57:05Z</time>
      </trkpt>
      <trkpt lat="48.02693" lon="8.17303">
        <ele>944.2</ele>
        <time>2010-01-01T00:57:16Z</time>
      </trkpt>
      <trkpt lat="48.02721" lon="8.17329">
        <ele>943.3</ele>
        <time>2010-01-01T00:57:29Z</time>
      </trkpt>
      <trkpt lat="48.02783" lon="8.17363">
        <ele>944.3</ele>
        <time>2010-01-01T00:57:55Z</time>
      </trkpt>
      <trkpt lat="48.02826" lon="8.17383">
        <ele>942.2</ele>
        <time>2010-01-01T00:58:13Z</time>
      </trkpt>
      <trkpt lat="48.02829" lon="8.1735">
        <ele>940.3</ele>
        <time>2010-01-01T00:58:22Z</time>
      </trkpt>
      <trkpt lat="48.02778" lon="8.17262">
        <ele>939</ele>
        <time>2010-01-01T00:58:53Z</time>
      </trkpt>
      <trkpt lat="48.02779" lon="8.17214">
        <ele>937.8</ele>
        <time>2010-01-01T00:59:06Z</time>
      </trkpt>
      <trkpt lat="48.0279" lon="8.17157">
        <ele>941</ele>
        <time>2010-01-01T00:59:22Z</time>
      </trkpt>
      <trkpt lat="48.02788" lon="8.17115">
        <ele>939.8</ele>
        <time>2010-01-01T00:59:33Z</time>
      </trkpt>
      <trkpt lat="48.02791" lon="8.17081">
        <ele>939.6</ele>
        <time>2010-01-01T00:59:42Z</time>
      </trkpt>
      <trkpt lat="48.02822" lon="8.17002">
        <ele>950.8</ele>
        <time>2010-01-01T01:00:07Z</time>
      </trkpt>
      <trkpt lat="48.02826" lon="8.16975">
        <ele>947.5</ele>
        <time>2010-01-01T01:00:15Z</time>
      </trkpt>
      <trkpt lat="48.02827" lon="8.1694">
        <ele>939.2</ele>
        <time>2010-01-01T01:00:24Z</time>
      </trkpt>
      <trkpt lat="48.02845" lon="8.16903">
        <ele>935.6</ele>
        <time>2010-01-01T01:00:36Z</time>
      </trkpt>
      <trkpt lat="48.02861" lon="8.16898">
        <ele>938.3</ele>
        <time>2010-01-01T01:00:43Z</time>
      </trkpt>
      <trkpt lat="48.02901" lon="8.16905">
        <ele>939.3</ele>
        <time>2010-01-01T01:00:59Z</time>
      </trkpt>
      <trkpt lat="48.02966" lon="8.16907">
        <ele>946</ele>
        <time>2010-01-01T01:01:25Z</time>
      </trkpt>
      <trkpt lat="48.02978" lon="8.16894">
        <ele>946.2</ele>
        <time>2010-01-01T01:01:30Z</time>
      </trkpt>
      <trkpt lat="48.02983" lon="8.16776">
        <ele>944.8</ele>
        <time>2010-01-01T01:02:02Z</time>
      </trkpt>
      <trkpt lat="48.03007" lon="8.16704">
        <ele>936</ele>
        <time>2010-01-01T01:02:24Z</time>
      </trkpt>
      <trkpt lat="48.03051" lon="8.16682">
        <ele>932.1</ele>
        <time>2010-01-01T01:02:42Z</time>
      </trkpt>
      <trkpt lat="48.031" lon="8.16639">
        <ele>928.5</ele>
        <time>2010-01-01T01:03:05Z</time>
      </trkpt>
      <trkpt lat="48.03176" lon="8.16593">
        <ele>921.5</ele>
        <time>2010-01-01T01:03:38Z</time>
      </trkpt>
      <trkpt lat="48.03217" lon="8.16585">
        <ele>924.4</ele>
        <time>2010-01-01T01:03:54Z</time>
      </trkpt>
      <trkpt lat="48.03237" lon="8.16551">
        <ele>923.7</ele>
        <time>2010-01-01T01:04:07Z</time>
      </trkpt>
      <trkpt lat="48.03252" lon="8.16503">
        <ele>921.4</ele>
        <time>2010-01-01T01:04:21Z</time>
      </trkpt>
      <trkpt lat="48.03264" lon="8.16507">
        <ele>922.5</ele>
        <time>2010-01-01T01:04:25Z</time>
      </trkpt>
      <trkpt lat="48.033" lon="8.16502">
        <ele>924</ele>
        <time>2010-01-01T01:04:40Z</time>
      </trkpt>
      <trkpt lat="48.03347" lon="8.16514">
        <ele>929</ele>
        <time>2010-01-01T01:04:59Z</time>
      </trkpt>
      <trkpt lat="48.03358" lon="8.16514">
        <ele>930.2</ele>
        <time>2010-01-01T01:05:03Z</time>
      </trkpt>
      <trkpt lat="48.03373" lon="8.16497">
        <ele>931.7</ele>
        <time>2010-01-01T01:05:11Z</time>
      </trkpt>
      <trkpt lat="48.0338" lon="8.16447">
        <ele>929</ele>
        <time>2010-01-01T01:05:24Z</time>
      </trkpt>
      <trkpt lat="48.03383" lon="8.16405">
        <ele>926</ele>
        <time>2010-01-01T01:05:36Z</time>
      </trkpt>
      <trkpt lat="48.03389" lon="8.16389">
        <ele>926</ele>
        <time>2010-01-01T01:05:41Z</time>
      </trkpt>
      <trkpt lat="48.0341" lon="8.16383">
        <ele>928.7</ele>
        <time>2010-01-01T01:05:49Z</time>
      </trkpt>
      <trkpt lat="48.03452" lon="8.16438">
        <ele>936.7</ele>
        <time>2010-01-01T01:06:12Z</time>
      </trkpt>
      <trkpt lat="48.03508" lon="8.16504">
        <ele>943.4</ele>
        <time>2010-01-01T01:06:40Z</time>
      </trkpt>
      <trkpt lat="48.03588" lon="8.16596">
        <ele>971.1</ele>
        <time>2010-01-01T01:07:21Z</time>
      </trkpt>
      <trkpt lat="48.03621" lon="8.16631">
        <ele>972.5</ele>
        <time>2010-01-01T01:07:37Z</time>
      </trkpt>
      <trkpt lat="48.03713" lon="8.16757">
        <ele>972.5</ele>
        <time>2010-01-01T01:08:27Z</time>
      </trkpt>
      <trkpt lat="48.03738" lon="8.168">
        <ele>975.5</ele>
        <time>2010-01-01T01:08:42Z</time>
      </trkpt>
      <trkpt lat="48.03822" lon="8.16953">
        <ele>980.8</ele>
        <time>2010-01-01T01:09:35Z</time>
      </trkpt>
      <trkpt lat="48.03834" lon="8.17105">
        <ele>977</ele>
        <time>2010-01-01T01:10:16Z</time>
      </trkpt>
      <trkpt lat="48.03848" lon="8.17159">
        <ele>978.3</ele>
        <time>2010-01-01T01:10:32Z</time>
      </trkpt>
      <trkpt lat="48.03881" lon="8.17211">
        <ele>978.7</ele>
        <time>2010-01-01T01:10:51Z</time>
      </trkpt>
      <trkpt lat="48.03891" lon="8.17218">
        <ele>978.9</ele>
        <time>2010-01-01T01:10:55Z</time>
      </trkpt>
      <trkpt lat="48.03961" lon="8.17303">
        <ele>982.8</ele>
        <time>2010-01-01T01:11:32Z</time>
      </trkpt>
      <trkpt lat="48.03971" lon="8.17308">
        <ele>982.9</ele>
        <time>2010-01-01T01:11:36Z</time>
      </trkpt>
      <trkpt lat="48.03988" lon="8.17319">
        <ele>983.3</ele>
        <time>2010-01-01T01:11:43Z</time>
      </trkpt>
      <trkpt lat="48.04023" lon="8.17344">
        <ele>981.8</ele>
        <time>2010-01-01T01:11:58Z</time>
      </trkpt>
      <trkpt lat="48.04062" lon="8.17382">
        <ele>980.3</ele>
        <time>2010-01-01T01:12:17Z</time>
      </trkpt>
      <trkpt lat="48.0408" lon="8.17406">
        <ele>979.5</ele>
        <time>2010-01-01T01:12:27Z</time>
      </trkpt>
      <trkpt lat="48.04074" lon="8.17467">
        <ele>982.3</ele>
        <time>2010-01-01T01:12:43Z</time>
      </trkpt>
      <trkpt lat="48.04081" lon="8.17501">
        <ele>984</ele>
        <time>2010-01-01T01:12:53Z</time>
      </trkpt>
      <trkpt lat="48.04101" lon="8.17543">
        <ele>987</ele>
        <time>2010-01-01T01:13:07Z</time>
      </trkpt>
      <trkpt lat="48.0411" lon="8.1758">
        <ele>990.6</ele>
        <time>2010-01-01T01:13:17Z</time>
      </trkpt>
      <trkpt lat="48.0412" lon="8.1761">
        <ele>991.3</ele>
        <time>2010-01-01T01:13:26Z</time>
      </trkpt>
      <trkpt lat="48.0413" lon="8.17648">
        <ele>990.7</ele>
        <time>2010-01-01T01:13:37Z</time>
      </trkpt>
      <trkpt lat="48.04176" lon="8.17615">
        <ele>991.7</ele>
        <time>2010-01-01T01:13:57Z</time>
      </trkpt>
      <trkpt lat="48.04257" lon="8.17589">
        <ele>986.8</ele>
        <time>2010-01-01T01:14:30Z</time>
      </trkpt>
      <trkpt lat="48.04328" lon="8.17569">
        <ele>989.2</ele>
        <time>2010-01-01T01:14:59Z</time>
      </trkpt>
      <trkpt lat="48.04436" lon="8.17536">
        <ele>992.8</ele>
        <time>2010-01-01T01:15:43Z</time>
      </trkpt>
      <trkpt lat="48.04518" lon="8.17513">
        <ele>1004.3</ele>
        <time>2010-01-01T01:16:17Z</time>
      </trkpt>
      <trkpt lat="48.04564" lon="8.17507">
        <ele>1010.7</ele>
        <time>2010-01-01T01:16:35Z</time>
      </trkpt>
      <trkpt lat="48.04632" lon="8.17507">
        <ele>1027.1</ele>
        <time>2010-01-01T01:17:03Z</time>
      </trkpt>
      <trkpt lat="48.04641" lon="8.17561">
        <ele>1030.3</ele>
        <time>2010-01-01T01:17:18Z</time>
      </trkpt>
      <trkpt lat="48.04655" lon="8.17616">
        <ele>1029.9</ele>
        <time>2010-01-01T01:17:33Z</time>
      </trkpt>
      <trkpt lat="48.04706" lon="8.1773">
        <ele>1035.3</ele>
        <time>2010-01-01T01:18:10Z</time>
      </trkpt>
      <trkpt lat="48.04681" lon="8.17827">
        <ele>1017.5</ele>
        <time>2010-01-01T01:18:38Z</time>
      </trkpt>
      <trkpt lat="48.04723" lon="8.17877">
        <ele>1018.8</ele>
        <time>2010-01-01T01:18:59Z</time>
      </trkpt>
      <trkpt lat="48.0477" lon="8.17921">
        <ele>1020.5</ele>
        <time>2010-01-01T01:19:22Z</time>
      </trkpt>
      <trkpt lat="48.04794" lon="8.17929">
        <ele>1022.4</ele>
        <time>2010-01-01T01:19:32Z</time>
      </trkpt>
      <trkpt lat="48.04827" lon="8.17925">
        <ele>1026.2</ele>
        <time>2010-01-01T01:19:45Z</time>
      </trkpt>
      <trkpt lat="48.04852" lon="8.17918">
        <ele>1029.9</ele>
        <time>2010-01-01T01:19:55Z</time>
      </trkpt>
      <trkpt lat="48.04894" lon="8.17778">
        <ele>1039.1</ele>
        <time>2010-01-01T01:20:36Z</time>
      </trkpt>
      <trkpt lat="48.04922" lon="8.17666">
        <ele>1036.7</ele>
        <time>2010-01-01T01:21:08Z</time>
      </trkpt>
      <trkpt lat="48.04947" lon="8.17607">
        <ele>1040.6</ele>
        <time>2010-01-01T01:21:27Z</time>
      </trkpt>
      <trkpt lat="48.04993" lon="8.17553">
        <ele>1056.2</ele>
        <time>2010-01-01T01:21:50Z</time>
      </trkpt>
      <trkpt lat="48.05044" lon="8.17532">
        <ele>1058.3</ele>
        <time>2010-01-01T01:22:11Z</time>
      </trkpt>
      <trkpt lat="48.05064" lon="8.17529">
        <ele>1058.9</ele>
        <time>2010-01-01T01:22:19Z</time>
      </trkpt>
      <trkpt lat="48.05103" lon="8.17539">
        <ele>1059.5</ele>
        <time>2010-01-01T01:22:35Z</time>
      </trkpt>
      <trkpt lat="48.05263" lon="8.17576">
        <ele>1073.3</ele>
        <time>2010-01-01T01:23:40Z</time>
      </trkpt>
      <trkpt lat="48.05364" lon="8.17543">
        <ele>1075.5</ele>
        <time>2010-01-01T01:24:21Z</time>
      </trkpt>
      <trkpt lat="48.05408" lon="8.17516">
        <ele>1072.5</ele>
        <time>2010-01-01T01:24:41Z</time>
      </trkpt>
      <trkpt lat="48.05475" lon="8.17456">
        <ele>1068.7</ele>
        <time>2010-01-01T01:25:12Z</time>
      </trkpt>
      <trkpt lat="48.05566" lon="8.17511">
        <ele>1059.2</ele>
        <time>2010-01-01T01:25:51Z</time>
      </trkpt>
      <trkpt lat="48.05687" lon="8.17492">
        <ele>1051.1</ele>
        <time>2010-01-01T01:26:40Z</time>
      </trkpt>
      <trkpt lat="48.05723" lon="8.17487">
        <ele>1044.4</ele>
        <time>2010-01-01T01:26:54Z</time>
      </trkpt>
      <trkpt lat="48.05749" lon="8.17485">
        <ele>1036.7</ele>
        <time>2010-01-01T01:27:05Z</time>
      </trkpt>
      <trkpt lat="48.05815" lon="8.17492">
        <ele>1030.2</ele>
        <time>2010-01-01T01:27:31Z</time>
      </trkpt>
      <trkpt lat="48.05878" lon="8.17489">
        <ele>1030.7</ele>
        <time>2010-01-01T01:27:56Z</time>
      </trkpt>
      <trkpt lat="48.05915" lon="8.17482">
        <ele>1034.4</ele>
        <time>2010-01-01T01:28:11Z</time>
      </trkpt>
      <trkpt lat="48.05954" lon="8.17473">
        <ele>1037.6</ele>
        <time>2010-01-01T01:28:27Z</time>
      </trkpt>
      <trkpt lat="48.05995" lon="8.17472">
        <ele>1038.7</ele>
        <time>2010-01-01T01:28:44Z</time>
      </trkpt>
      <trkpt lat="48.06032" lon="8.17488">
        <ele>1043.5</ele>
        <time>2010-01-01T01:28:59Z</time>
      </trkpt>
      <trkpt lat="48.06066" lon="8.17492">
        <ele>1049</ele>
        <time>2010-01-01T01:29:13Z</time>
      </trkpt>
      <trkpt lat="48.06116" lon="8.17523">
        <ele>1057.1</ele>
        <time>2010-01-01T01:29:34Z</time>
      </trkpt>
      <trkpt lat="48.06153" lon="8.17548">
        <ele>1059.7</ele>
        <time>2010-01-01T01:29:50Z</time>
      </trkpt>
      <trkpt lat="48.0619" lon="8.1757">
        <ele>1059.6</ele>
        <time>2010-01-01T01:30:06Z</time>
      </trkpt>
      <trkpt lat="48.06231" lon="8.17567">
        <ele>1056.3</ele>
        <time>2010-01-01T01:30:23Z</time>
      </trkpt>
      <trkpt lat="48.06283" lon="8.1756">
        <ele>1058.1</ele>
        <time>2010-01-01T01:30:44Z</time>
      </trkpt>
      <trkpt lat="48.06291" lon="8.17529">
        <ele>1064.4</ele>
        <time>2010-01-01T01:30:53Z</time>
      </trkpt>
      <trkpt lat="48.06322" lon="8.17454">
        <ele>1067.3</ele>
        <time>2010-01-01T01:31:16Z</time>
      </trkpt>
      <trkpt lat="48.06368" lon="8.17371">
        <ele>1071</ele>
        <time>2010-01-01T01:31:45Z</time>
      </trkpt>
      <trkpt lat="48.06398" lon="8.17272">
        <ele>1066.7</ele>
        <time>2010-01-01T01:32:14Z</time>
      </trkpt>
      <trkpt lat="48.06414" lon="8.17187">
        <ele>1065.5</ele>
        <time>2010-01-01T01:32:38Z</time>
      </trkpt>
      <trkpt lat="48.06419" lon="8.17069">
        <ele>1069.7</ele>
        <time>2010-01-01T01:33:10Z</time>
      </trkpt>
      <trkpt lat="48.06416" lon="8.17019">
        <ele>1066.7</ele>
        <time>2010-01-01T01:33:23Z</time>
      </trkpt>
      <trkpt lat="48.06437" lon="8.16913">
        <ele>1065.2</ele>
        <time>2010-01-01T01:33:53Z</time>
      </trkpt>
      <trkpt lat="48.06487" lon="8.16747">
        <ele>1058.8</ele>
        <time>2010-01-01T01:34:41Z</time>
      </trkpt>
      <trkpt lat="48.06524" lon="8.16684">
        <ele>1057.8</ele>
        <time>2010-01-01T01:35:04Z</time>
      </trkpt>
      <trkpt lat="48.06582" lon="8.16609">
        <ele>1057.4</ele>
        <time>2010-01-01T01:35:34Z</time>
      </trkpt>
      <trkpt lat="48.06623" lon="8.16539">
        <ele>1050.5</ele>
        <time>2010-01-01T01:35:59Z</time>
      </trkpt>
      <trkpt lat="48.06659" lon="8.1646">
        <ele>1042.7</ele>
        <time>2010-01-01T01:36:25Z</time>
      </trkpt>
      <trkpt lat="48.06736" lon="8.16371">
        <ele>1039.4</ele>
        <time>2010-01-01T01:37:04Z</time>
      </trkpt>
      <trkpt lat="48.06778" lon="8.16326">
        <ele>1035</ele>
        <time>2010-01-01T01:37:25Z</time>
      </trkpt>
      <trkpt lat="48.06803" lon="8.1629">
        <ele>1032.5</ele>
        <time>2010-01-01T01:37:38Z</time>
      </trkpt>
      <trkpt lat="48.06838" lon="8.16205">
        <ele>1027.8</ele>
        <time>2010-01-01T01:38:05Z</time>
      </trkpt>
      <trkpt lat="48.06855" lon="8.16108">
        <ele>1020.5</ele>
        <time>2010-01-01T01:38:32Z</time>
      </trkpt>
      <trkpt lat="48.06853" lon="8.16065">
        <ele>1015.7</ele>
        <time>2010-01-01T01:38:43Z</time>
      </trkpt>
      <trkpt lat="48.06871" lon="8.16065">
        <ele>1014.5</ele>
        <time>2010-01-01T01:38:51Z</time>
      </trkpt>
      <trkpt lat="48.06897" lon="8.16097">
        <ele>1013</ele>
        <time>2010-01-01T01:39:04Z</time>
      </trkpt>
      <trkpt lat="48.06955" lon="8.16156">
        <ele>1007.8</ele>
        <time>2010-01-01T01:39:32Z</time>
      </trkpt>
      <trkpt lat="48.0701" lon="8.16191">
        <ele>1006.1</ele>
        <time>2010-01-01T01:39:56Z</time>
      </trkpt>
      <trkpt lat="48.07029" lon="8.1622">
        <ele>1007.2</ele>
        <time>2010-01-01T01:40:07Z</time>
      </trkpt>
      <trkpt lat="48.07087" lon="8.16334">
        <ele>1011.2</ele>
        <time>2010-01-01T01:40:45Z</time>
      </trkpt>
      <trkpt lat="48.07107" lon="8.16365">
        <ele>1010.1</ele>
        <time>2010-01-01T01:40:57Z</time>
      </trkpt>
      <trkpt lat="48.07133" lon="8.1637">
        <ele>1007.2</ele>
        <time>2010-01-01T01:41:07Z</time>
      </trkpt>
      <trkpt lat="48.07179" lon="8.16358">
        <ele>1014.9</ele>
        <time>2010-01-01T01:41:26Z</time>
      </trkpt>
      <trkpt lat="48.07197" lon="8.16348">
        <ele>1020.9</ele>
        <time>2010-01-01T01:41:34Z</time>
      </trkpt>
      <trkpt lat="48.07217" lon="8.16268">
        <ele>1021.2</ele>
        <time>2010-01-01T01:41:57Z</time>
      </trkpt>
      <trkpt lat="48.07239" lon="8.16225">
        <ele>1026</ele>
        <time>2010-01-01T01:42:11Z</time>
      </trkpt>
      <trkpt lat="48.0728" lon="8.16146">
        <ele>1030.9</ele>
        <time>2010-01-01T01:42:38Z</time>
      </trkpt>
      <trkpt lat="48.07302" lon="8.16137">
        <ele>1031.5</ele>
        <time>2010-01-01T01:42:47Z</time>
      </trkpt>
      <trkpt lat="48.07347" lon="8.16112">
        <ele>1036.1</ele>
        <time>2010-01-01T01:43:06Z</time>
      </trkpt>
      <trkpt lat="48.07378" lon="8.16086">
        <ele>1034.6</ele>
        <time>2010-01-01T01:43:21Z</time>
      </trkpt>
      <trkpt lat="48.07398" lon="8.16085">
        <ele>1034.3</ele>
        <time>2010-01-01T01:43:29Z</time>
      </trkpt>
      <trkpt lat="48.07409" lon="8.16093">
        <ele>1034.9</ele>
        <time>2010-01-01T01:43:34Z</time>
      </trkpt>
      <trkpt lat="48.07433" lon="8.1613">
        <ele>1038.9</ele>
        <time>2010-01-01T01:43:47Z</time>
      </trkpt>
      <trkpt lat="48.07481" lon="8.16211">
        <ele>1048.7</ele>
        <time>2010-01-01T01:44:16Z</time>
      </trkpt>
      <trkpt lat="48.07497" lon="8.16209">
        <ele>1047.4</ele>
        <time>2010-01-01T01:44:23Z</time>
      </trkpt>
      <trkpt lat="48.0751" lon="8.16196">
        <ele>1045.6</ele>
        <time>2010-01-01T01:44:29Z</time>
      </trkpt>
      <trkpt lat="48.07558" lon="8.16126">
        <ele>1050.2</ele>
        <time>2010-01-01T01:44:56Z</time>
      </trkpt>
      <trkpt lat="48.07585" lon="8.16063">
        <ele>1055.5</ele>
        <time>2010-01-01T01:45:16Z</time>
      </trkpt>
      <trkpt lat="48.07606" lon="8.15986">
        <ele>1056.2</ele>
        <time>2010-01-01T01:45:38Z</time>
      </trkpt>
      <trkpt lat="48.07642" lon="8.15913">
        <ele>1064.4</ele>
        <time>2010-01-01T01:46:02Z</time>
      </trkpt>
      <trkpt lat="48.07694" lon="8.15836">
        <ele>1082</ele>
        <time>2010-01-01T01:46:32Z</time>
      </trkpt>
      <trkpt lat="48.07702" lon="8.15795">
        <ele>1080.7</ele>
        <time>2010-01-01T01:46:43Z</time>
      </trkpt>
      <trkpt lat="48.07709" lon="8.15704">
        <ele>1085.1</ele>
        <time>2010-01-01T01:47:08Z</time>
      </trkpt>
      <trkpt lat="48.0772" lon="8.15616">
        <ele>1095</ele>
        <time>2010-01-01T01:47:31Z</time>
      </trkpt>
      <trkpt lat="48.07745" lon="8.15688">
        <ele>1102.2</ele>
        <time>2010-01-01T01:47:53Z</time>
      </trkpt>
      <trkpt lat="48.07765" lon="8.15796">
        <ele>1108.4</ele>
        <time>2010-01-01T01:48:23Z</time>
      </trkpt>
      <trkpt lat="48.07766" lon="8.15871">
        <ele>1113.8</ele>
        <time>2010-01-01T01:48:43Z</time>
      </trkpt>
      <trkpt lat="48.07765" lon="8.16003">
        <ele>1127.5</ele>
        <time>2010-01-01T01:49:18Z</time>
      </trkpt>
      <trkpt lat="48.07767" lon="8.16118">
        <ele>1133</ele>
        <time>2010-01-01T01:49:49Z</time>
      </trkpt>
      <trkpt lat="48.07769" lon="8.16187">
        <ele>1132</ele>
        <time>2010-01-01T01:50:07Z</time>
      </trkpt>
      <trkpt lat="48.07788" lon="8.16233">
        <ele>1135.7</ele>
        <time>2010-01-01T01:50:22Z</time>
      </trkpt>
      <trkpt lat="48.07894" lon="8.16007">
        <ele>1147.4</ele>
        <time>2010-01-01T01:51:36Z</time>
      </trkpt>
      <trkpt lat="48.07906" lon="8.15823">
        <ele>1151.1</ele>
        <time>2010-01-01T01:52:25Z</time>
      </trkpt>
      <trkpt lat="48.07921" lon="8.15759">
        <ele>1152.5</ele>
        <time>2010-01-01T01:52:43Z</time>
      </trkpt>
      <trkpt lat="48.07985" lon="8.15677">
        <ele>1148.5</ele>
        <time>2010-01-01T01:53:17Z</time>
      </trkpt>
      <trkpt lat="48.08079" lon="8.15764">
        <ele>1142.9</ele>
        <time>2010-01-01T01:54:01Z</time>
      </trkpt>
      <trkpt lat="48.08108" lon="8.15907">
        <ele>1145.4</ele>
        <time>2010-01-01T01:54:41Z</time>
      </trkpt>
      <trkpt lat="48.08175" lon="8.15891">
        <ele>1137.9</ele>
        <time>2010-01-01T01:55:09Z</time>
      </trkpt>
      <trkpt lat="48.08187" lon="8.15895">
        <ele>1136.8</ele>
        <time>2010-01-01T01:55:13Z</time>
      </trkpt>
      <trkpt lat="48.08282" lon="8.15927">
        <ele>1137.7</ele>
        <time>2010-01-01T01:55:52Z</time>
      </trkpt>
      <trkpt lat="48.08307" lon="8.15859">
        <ele>1134.8</ele>
        <time>2010-01-01T01:56:13Z</time>
      </trkpt>
      <trkpt lat="48.08295" lon="8.15799">
        <ele>1128.9</ele>
        <time>2010-01-01T01:56:30Z</time>
      </trkpt>
      <trkpt lat="48.08319" lon="8.1579">
        <ele>1129.1</ele>
        <time>2010-01-01T01:56:40Z</time>
      </trkpt>
      <trkpt lat="48.08376" lon="8.15756">
        <ele>1129</ele>
        <time>2010-01-01T01:57:04Z</time>
      </trkpt>
      <trkpt lat="48.08433" lon="8.15712">
        <ele>1122.5</ele>
        <time>2010-01-01T01:57:30Z</time>
      </trkpt>
      <trkpt lat="48.08469" lon="8.15663">
        <ele>1124.3</ele>
        <time>2010-01-01T01:57:50Z</time>
      </trkpt>
      <trkpt lat="48.08536" lon="8.15553">
        <ele>1121.9</ele>
        <time>2010-01-01T01:58:29Z</time>
      </trkpt>
      <trkpt lat="48.08566" lon="8.15501">
        <ele>1124</ele>
        <time>2010-01-01T01:58:48Z</time>
      </trkpt>
      <trkpt lat="48.08591" lon="8.1548">
        <ele>1123.2</ele>
        <time>2010-01-01T01:58:59Z</time>
      </trkpt>
      <trkpt lat="48.08622" lon="8.15443">
        <ele>1117</ele>
        <time>2010-01-01T01:59:15Z</time>
      </trkpt>
      <trkpt lat="48.08693" lon="8.15399">
        <ele>1116.7</ele>
        <time>2010-01-01T01:59:46Z</time>
      </trkpt>
      <trkpt lat="48.08719" lon="8.15377">
        <ele>1115.9</ele>
        <time>2010-01-01T01:59:58Z</time>
      </trkpt>
      <trkpt lat="48.08753" lon="8.15334">
        <ele>1117.4</ele>
        <time>2010-01-01T02:00:15Z</time>
      </trkpt>
      <trkpt lat="48.08777" lon="8.15227">
        <ele>1111.6</ele>
        <time>2010-01-01T02:00:45Z</time>
      </trkpt>
      <trkpt lat="48.08813" lon="8.15147">
        <ele>1107.3</ele>
        <time>2010-01-01T02:01:11Z</time>
      </trkpt>
      <trkpt lat="48.08831" lon="8.15111">
        <ele>1103.6</ele>
        <time>2010-01-01T02:01:23Z</time>
      </trkpt>
      <trkpt lat="48.08878" lon="8.15085">
        <ele>1104.6</ele>
        <time>2010-01-01T02:01:44Z</time>
      </trkpt>
      <trkpt lat="48.08904" lon="8.15083">
        <ele>1105.4</ele>
        <time>2010-01-01T02:01:54Z</time>
      </trkpt>
      <trkpt lat="48.08988" lon="8.15071">
        <ele>1100.1</ele>
        <time>2010-01-01T02:02:28Z</time>
      </trkpt>
      <trkpt lat="48.0903" lon="8.15046">
        <ele>1099.5</ele>
        <time>2010-01-01T02:02:46Z</time>
      </trkpt>
      <trkpt lat="48.09066" lon="8.15011">
        <ele>1097.4</ele>
        <time>2010-01-01T02:03:03Z</time>
      </trkpt>
      <trkpt lat="48.09087" lon="8.14984">
        <ele>1096</ele>
        <time>2010-01-01T02:03:14Z</time>
      </trkpt>
      <trkpt lat="48.09093" lon="8.14951">
        <ele>1093.4</ele>
        <time>2010-01-01T02:03:23Z</time>
      </trkpt>
      <trkpt lat="48.09082" lon="8.14938">
        <ele>1090.7</ele>
        <time>2010-01-01T02:03:29Z</time>
      </trkpt>
      <trkpt lat="48.09089" lon="8.14907">
        <ele>1093.5</ele>
        <time>2010-01-01T02:03:38Z</time>
      </trkpt>
      <trkpt lat="48.09083" lon="8.14861">
        <ele>1095.9</ele>
        <time>2010-01-01T02:03:50Z</time>
      </trkpt>
      <trkpt lat="48.09078" lon="8.14794">
        <ele>1096.6</ele>
        <time>2010-01-01T02:04:08Z</time>
      </trkpt>
      <trkpt lat="48.09071" lon="8.14728">
        <ele>1091.9</ele>
        <time>2010-01-01T02:04:26Z</time>
      </trkpt>
      <trkpt lat="48.09085" lon="8.14651">
        <ele>1089.3</ele>
        <time>2010-01-01T02:04:47Z</time>
      </trkpt>
      <trkpt lat="48.09101" lon="8.14593">
        <ele>1088.1</ele>
        <time>2010-01-01T02:05:04Z</time>
      </trkpt>
      <trkpt lat="48.09106" lon="8.1455">
        <ele>1086</ele>
        <time>2010-01-01T02:05:16Z</time>
      </trkpt>
      <trkpt lat="48.09112" lon="8.14431">
        <ele>1083.2</ele>
        <time>2010-01-01T02:05:48Z</time>
      </trkpt>
      <trkpt lat="48.09125" lon="8.14368">
        <ele>1081.9</ele>
        <time>2010-01-01T02:06:06Z</time>
      </trkpt>
      <trkpt lat="48.09148" lon="8.1431">
        <ele>1087.4</ele>
        <time>2010-01-01T02:06:23Z</time>
      </trkpt>
      <trkpt lat="48.09144" lon="8.14234">
        <ele>1083.8</ele>
        <time>2010-01-01T02:06:44Z</time>
      </trkpt>
      <trkpt lat="48.09143" lon="8.14154">
        <ele>1087.9</ele>
        <time>2010-01-01T02:07:05Z</time>
      </trkpt>
      <trkpt lat="48.09159" lon="8.14052">
        <ele>1091.5</ele>
        <time>2010-01-01T02:07:33Z</time>
      </trkpt>
      <trkpt lat="48.0916" lon="8.13948">
        <ele>1088.9</ele>
        <time>2010-01-01T02:08:01Z</time>
      </trkpt>
      <trkpt lat="48.09137" lon="8.13884">
        <ele>1082.5</ele>
        <time>2010-01-01T02:08:20Z</time>
      </trkpt>
      <trkpt lat="48.09135" lon="8.13856">
        <ele>1083</ele>
        <time>2010-01-01T02:08:28Z</time>
      </trkpt>
      <trkpt lat="48.09145" lon="8.13822">
        <ele>1084.9</ele>
        <time>2010-01-01T02:08:38Z</time>
      </trkpt>
      <trkpt lat="48.09153" lon="8.13758">
        <ele>1083.3</ele>
        <time>2010-01-01T02:08:55Z</time>
      </trkpt>
      <trkpt lat="48.09143" lon="8.13705">
        <ele>1078.9</ele>
        <time>2010-01-01T02:09:10Z</time>
      </trkpt>
      <trkpt lat="48.09146" lon="8.13684">
        <ele>1079.2</ele>
        <time>2010-01-01T02:09:16Z</time>
      </trkpt>
      <trkpt lat="48.09191" lon="8.136">
        <ele>1083.9</ele>
        <time>2010-01-01T02:09:45Z</time>
      </trkpt>
      <trkpt lat="48.0922" lon="8.13573">
        <ele>1080.5</ele>
        <time>2010-01-01T02:09:58Z</time>
      </trkpt>
      <trkpt lat="48.09239" lon="8.13578">
        <ele>1078.5</ele>
        <time>2010-01-01T02:10:06Z</time>
      </trkpt>
      <trkpt lat="48.09254" lon="8.13658">
        <ele>1088.7</ele>
        <time>2010-01-01T02:10:28Z</time>
      </trkpt>
      <trkpt lat="48.0926" lon="8.13701">
        <ele>1089.6</ele>
        <time>2010-01-01T02:10:40Z</time>
      </trkpt>
      <trkpt lat="48.0927" lon="8.13744">
        <ele>1090.4</ele>
        <time>2010-01-01T02:10:52Z</time>
      </trkpt>
      <trkpt lat="48.09285" lon="8.13769">
        <ele>1091.6</ele>
        <time>2010-01-01T02:11:01Z</time>
      </trkpt>
      <trkpt lat="48.09316" lon="8.13779">
        <ele>1094.1</ele>
        <time>2010-01-01T02:11:14Z</time>
      </trkpt>
      <trkpt lat="48.09352" lon="8.13775">
        <ele>1090.7</ele>
        <time>2010-01-01T02:11:28Z</time>
      </trkpt>
      <trkpt lat="48.094" lon="8.1378">
        <ele>1094.3</ele>
        <time>2010-01-01T02:11:48Z</time>
      </trkpt>
      <trkpt lat="48.0944" lon="8.13773">
        <ele>1093.8</ele>
        <time>2010-01-01T02:12:04Z</time>
      </trkpt>
      <trkpt lat="48.09508" lon="8.13774">
        <ele>1090.1</ele>
        <time>2010-01-01T02:12:31Z</time>
      </trkpt>
      <trkpt lat="48.09557" lon="8.13805">
        <ele>1089.5</ele>
        <time>2010-01-01T02:12:52Z</time>
      </trkpt>
      <trkpt lat="48.09578" lon="8.1394">
        <ele>1103</ele>
        <time>2010-01-01T02:13:29Z</time>
      </trkpt>
      <trkpt lat="48.09576" lon="8.13984">
        <ele>1106.9</ele>
        <time>2010-01-01T02:13:41Z</time>
      </trkpt>
      <trkpt lat="48.09575" lon="8.14109">
        <ele>1107.9</ele>
        <time>2010-01-01T02:14:14Z</time>
      </trkpt>
      <trkpt lat="48.09607" lon="8.14236">
        <ele>1101.4</ele>
        <time>2010-01-01T02:14:51Z</time>
      </trkpt>
      <trkpt lat="48.09611" lon="8.14318">
        <ele>1099</ele>
        <time>2010-01-01T02:15:13Z</time>
      </trkpt>
      <trkpt lat="48.09631" lon="8.14368">
        <ele>1096</ele>
        <time>2010-01-01T02:15:28Z</time>
      </trkpt>
      <trkpt lat="48.09638" lon="8.1442">
        <ele>1096.1</ele>
        <time>2010-01-01T02:15:42Z</time>
      </trkpt>
      <trkpt lat="48.09666" lon="8.14477">
        <ele>1093.5</ele>
        <time>2010-01-01T02:16:01Z</time>
      </trkpt>
      <trkpt lat="48.09672" lon="8.14522">
        <ele>1096.3</ele>
        <time>2010-01-01T02:16:14Z</time>
      </trkpt>
      <trkpt lat="48.09688" lon="8.14579">
        <ele>1096.3</ele>
        <time>2010-01-01T02:16:30Z</time>
      </trkpt>
      <trkpt lat="48.09688" lon="8.14631">
        <ele>1097.3</ele>
        <time>2010-01-01T02:16:44Z</time>
      </trkpt>
      <trkpt lat="48.09678" lon="8.14674">
        <ele>1097.9</ele>
        <time>2010-01-01T02:16:56Z</time>
      </trkpt>
      <trkpt lat="48.09658" lon="8.14748">
        <ele>1095</ele>
        <time>2010-01-01T02:17:17Z</time>
      </trkpt>
      <trkpt lat="48.09675" lon="8.14828">
        <ele>1093.3</ele>
        <time>2010-01-01T02:17:40Z</time>
      </trkpt>
      <trkpt lat="48.09684" lon="8.14935">
        <ele>1096</ele>
        <time>2010-01-01T02:18:09Z</time>
      </trkpt>
      <trkpt lat="48.09692" lon="8.14985">
        <ele>1094.8</ele>
        <time>2010-01-01T02:18:22Z</time>
      </trkpt>
      <trkpt lat="48.09695" lon="8.15035">
        <ele>1093.4</ele>
        <time>2010-01-01T02:18:36Z</time>
      </trkpt>
      <trkpt lat="48.09682" lon="8.15087">
        <ele>1097</ele>
        <time>2010-01-01T02:18:51Z</time>
      </trkpt>
      <trkpt lat="48.09657" lon="8.15125">
        <ele>1097.7</ele>
        <time>2010-01-01T02:19:05Z</time>
      </trkpt>
      <trkpt lat="48.096" lon="8.15194">
        <ele>1097.4</ele>
        <time>2010-01-01T02:19:34Z</time>
      </trkpt>
      <trkpt lat="48.09597" lon="8.1521">
        <ele>1097.5</ele>
        <time>2010-01-01T02:19:39Z</time>
      </trkpt>
      <trkpt lat="48.09603" lon="8.15231">
        <ele>1096</ele>
        <time>2010-01-01T02:19:45Z</time>
      </trkpt>
      <trkpt lat="48.09634" lon="8.15286">
        <ele>1095.7</ele>
        <time>2010-01-01T02:20:04Z</time>
      </trkpt>
      <trkpt lat="48.09662" lon="8.15349">
        <ele>1094.2</ele>
        <time>2010-01-01T02:20:25Z</time>
      </trkpt>
      <trkpt lat="48.0968" lon="8.15402">
        <ele>1093</ele>
        <time>2010-01-01T02:20:40Z</time>
      </trkpt>
      <trkpt lat="48.0968" lon="8.15433">
        <ele>1094.4</ele>
        <time>2010-01-01T02:20:49Z</time>
      </trkpt>
      <trkpt lat="48.09709" lon="8.15463">
        <ele>1094.8</ele>
        <time>2010-01-01T02:21:03Z</time>
      </trkpt>
      <trkpt lat="48.09786" lon="8.15526">
        <ele>1097.4</ele>
        <time>2010-01-01T02:21:38Z</time>
      </trkpt>
      <trkpt lat="48.09827" lon="8.15551">
        <ele>1098.8</ele>
        <time>2010-01-01T02:21:55Z</time>
      </trkpt>
      <trkpt lat="48.09872" lon="8.15597">
        <ele>1101.2</ele>
        <time>2010-01-01T02:22:17Z</time>
      </trkpt>
      <trkpt lat="48.09922" lon="8.15697">
        <ele>1103.1</ele>
        <time>2010-01-01T02:22:51Z</time>
      </trkpt>
      <trkpt lat="48.09955" lon="8.15765">
        <ele>1100.2</ele>
        <time>2010-01-01T02:23:13Z</time>
      </trkpt>
      <trkpt lat="48.09936" lon="8.15805">
        <ele>1100</ele>
        <time>2010-01-01T02:23:26Z</time>
      </trkpt>
      <trkpt lat="48.09893" lon="8.15862">
        <ele>1102.6</ele>
        <time>2010-01-01T02:23:49Z</time>
      </trkpt>
      <trkpt lat="48.0985" lon="8.15918">
        <ele>1109</ele>
        <time>2010-01-01T02:24:12Z</time>
      </trkpt>
      <trkpt lat="48.09802" lon="8.1596">
        <ele>1107.1</ele>
        <time>2010-01-01T02:24:34Z</time>
      </trkpt>
      <trkpt lat="48.09789" lon="8.15996">
        <ele>1105.4</ele>
        <time>2010-01-01T02:24:45Z</time>
      </trkpt>
      <trkpt lat="48.09786" lon="8.16078">
        <ele>1106.1</ele>
        <time>2010-01-01T02:25:07Z</time>
      </trkpt>
      <trkpt lat="48.09808" lon="8.16139">
        <ele>1110.8</ele>
        <time>2010-01-01T02:25:25Z</time>
      </trkpt>
      <trkpt lat="48.09829" lon="8.16185">
        <ele>1110.1</ele>
        <time>2010-01-01T02:25:41Z</time>
      </trkpt>
      <trkpt lat="48.09838" lon="8.16245">
        <ele>1115.5</ele>
        <time>2010-01-01T02:25:57Z</time>
      </trkpt>
      <trkpt lat="48.09844" lon="8.16336">
        <ele>1116.5</ele>
        <time>2010-01-01T02:26:21Z</time>
      </trkpt>
      <trkpt lat="48.09829" lon="8.16394">
        <ele>1114.4</ele>
        <time>2010-01-01T02:26:38Z</time>
      </trkpt>
      <trkpt lat="48.09795" lon="8.16437">
        <ele>1110.6</ele>
        <time>2010-01-01T02:26:56Z</time>
      </trkpt>
      <trkpt lat="48.09747" lon="8.16462">
        <ele>1106</ele>
        <time>2010-01-01T02:27:16Z</time>
      </trkpt>
      <trkpt lat="48.09705" lon="8.16487">
        <ele>1104.1</ele>
        <time>2010-01-01T02:27:34Z</time>
      </trkpt>
      <trkpt lat="48.09659" lon="8.1652">
        <ele>1106.9</ele>
        <time>2010-01-01T02:27:55Z</time>
      </trkpt>
      <trkpt lat="48.09614" lon="8.16549">
        <ele>1110</ele>
        <time>2010-01-01T02:28:14Z</time>
      </trkpt>
      <trkpt lat="48.09591" lon="8.16582">
        <ele>1107.4</ele>
        <time>2010-01-01T02:28:27Z</time>
      </trkpt>
      <trkpt lat="48.09585" lon="8.16607">
        <ele>1102.8</ele>
        <time>2010-01-01T02:28:34Z</time>
      </trkpt>
      <trkpt lat="48.09585" lon="8.16639">
        <ele>1098.1</ele>
        <time>2010-01-01T02:28:43Z</time>
      </trkpt>
      <trkpt lat="48.09617" lon="8.16672">
        <ele>1090.8</ele>
        <time>2010-01-01T02:28:58Z</time>
      </trkpt>
      <trkpt lat="48.09665" lon="8.16684">
        <ele>1077.1</ele>
        <time>2010-01-01T02:29:18Z</time>
      </trkpt>
      <trkpt lat="48.09714" lon="8.16676">
        <ele>1075.2</ele>
        <time>2010-01-01T02:29:37Z</time>
      </trkpt>
      <trkpt lat="48.0973" lon="8.16642">
        <ele>1084.3</ele>
        <time>2010-01-01T02:29:49Z</time>
      </trkpt>
      <trkpt lat="48.09763" lon="8.1657">
        <ele>1091</ele>
        <time>2010-01-01T02:30:12Z</time>
      </trkpt>
      <trkpt lat="48.09784" lon="8.16525">
        <ele>1099.6</ele>
        <time>2010-01-01T02:30:26Z</time>
      </trkpt>
      <trkpt lat="48.09804" lon="8.16504">
        <ele>1102.8</ele>
        <time>2010-01-01T02:30:36Z</time>
      </trkpt>
      <trkpt lat="48.09845" lon="8.16489">
        <ele>1102.5</ele>
        <time>2010-01-01T02:30:53Z</time>
      </trkpt>
      <trkpt lat="48.09876" lon="8.16494">
        <ele>1098</ele>
        <time>2010-01-01T02:31:06Z</time>
      </trkpt>
      <trkpt lat="48.09943" lon="8.16541">
        <ele>1085.3</ele>
        <time>2010-01-01T02:31:35Z</time>
      </trkpt>
      <trkpt lat="48.09959" lon="8.16567">
        <ele>1081</ele>
        <time>2010-01-01T02:31:45Z</time>
      </trkpt>
      <trkpt lat="48.09994" lon="8.16632">
        <ele>1073.5</ele>
        <time>2010-01-01T02:32:07Z</time>
      </trkpt>
      <trkpt lat="48.10029" lon="8.16654">
        <ele>1071.8</ele>
        <time>2010-01-01T02:32:22Z</time>
      </trkpt>
      <trkpt lat="48.10051" lon="8.16627">
        <ele>1073</ele>
        <time>2010-01-01T02:32:33Z</time>
      </trkpt>
      <trkpt lat="48.10057" lon="8.16577">
        <ele>1078.8</ele>
        <time>2010-01-01T02:32:47Z</time>
      </trkpt>
      <trkpt lat="48.10051" lon="8.16523">
        <ele>1079.2</ele>
        <time>2010-01-01T02:33:02Z</time>
      </trkpt>
      <trkpt lat="48.1005" lon="8.1646">
        <ele>1076.2</ele>
        <time>2010-01-01T02:33:19Z</time>
      </trkpt>
      <trkpt lat="48.10033" lon="8.1636">
        <ele>1083.3</ele>
        <time>2010-01-01T02:33:46Z</time>
      </trkpt>
      <trkpt lat="48.0999" lon="8.16263">
        <ele>1093.9</ele>
        <time>2010-01-01T02:34:17Z</time>
      </trkpt>
      <trkpt lat="48.09965" lon="8.16199">
        <ele>1095.9</ele>
        <time>2010-01-01T02:34:37Z</time>
      </trkpt>
      <trkpt lat="48.09946" lon="8.16144">
        <ele>1092.5</ele>
        <time>2010-01-01T02:34:54Z</time>
      </trkpt>
      <trkpt lat="48.09908" lon="8.16094">
        <ele>1096.6</ele>
        <time>2010-01-01T02:35:14Z</time>
      </trkpt>
      <trkpt lat="48.09891" lon="8.16049">
        <ele>1099</ele>
        <time>2010-01-01T02:35:28Z</time>
      </trkpt>
      <trkpt lat="48.09923" lon="8.16025">
        <ele>1096.5</ele>
        <time>2010-01-01T02:35:42Z</time>
      </trkpt>
      <trkpt lat="48.09968" lon="8.16038">
        <ele>1088.3</ele>
        <time>2010-01-01T02:36:01Z</time>
      </trkpt>
      <trkpt lat="48.10013" lon="8.16056">
        <ele>1083.5</ele>
        <time>2010-01-01T02:36:19Z</time>
      </trkpt>
      <trkpt lat="48.10043" lon="8.16035">
        <ele>1083.1</ele>
        <time>2010-01-01T02:36:33Z</time>
      </trkpt>
      <trkpt lat="48.10051" lon="8.16012">
        <ele>1083.8</ele>
        <time>2010-01-01T02:36:39Z</time>
      </trkpt>
      <trkpt lat="48.10051" lon="8.15966">
        <ele>1086.2</ele>
        <time>2010-01-01T02:36:52Z</time>
      </trkpt>
      <trkpt lat="48.10062" lon="8.15953">
        <ele>1086.1</ele>
        <time>2010-01-01T02:36:57Z</time>
      </trkpt>
      <trkpt lat="48.10109" lon="8.15965">
        <ele>1085.4</ele>
        <time>2010-01-01T02:37:17Z</time>
      </trkpt>
      <trkpt lat="48.10196" lon="8.16066">
        <ele>1071.2</ele>
        <time>2010-01-01T02:38:01Z</time>
      </trkpt>
      <trkpt lat="48.10256" lon="8.16101">
        <ele>1067.8</ele>
        <time>2010-01-01T02:38:27Z</time>
      </trkpt>
      <trkpt lat="48.10255" lon="8.16136">
        <ele>1064.4</ele>
        <time>2010-01-01T02:38:36Z</time>
      </trkpt>
      <trkpt lat="48.10202" lon="8.16178">
        <ele>1062.8</ele>
        <time>2010-01-01T02:39:00Z</time>
      </trkpt>
      <trkpt lat="48.10181" lon="8.16237">
        <ele>1060.8</ele>
        <time>2010-01-01T02:39:18Z</time>
      </trkpt>
      <trkpt lat="48.10177" lon="8.16321">
        <ele>1055.1</ele>
        <time>2010-01-01T02:39:40Z</time>
      </trkpt>
      <trkpt lat="48.102" lon="8.16368">
        <ele>1048</ele>
        <time>2010-01-01T02:39:56Z</time>
      </trkpt>
      <trkpt lat="48.10227" lon="8.16468">
        <ele>1038.3</ele>
        <time>2010-01-01T02:40:25Z</time>
      </trkpt>
      <trkpt lat="48.10195" lon="8.16628">
        <ele>1033.9</ele>
        <time>2010-01-01T02:41:09Z</time>
      </trkpt>
      <trkpt lat="48.10173" lon="8.16665">
        <ele>1033.6</ele>
        <time>2010-01-01T02:41:23Z</time>
      </trkpt>
      <trkpt lat="48.10181" lon="8.1671">
        <ele>1023.8</ele>
        <time>2010-01-01T02:41:35Z</time>
      </trkpt>
      <trkpt lat="48.10206" lon="8.16733">
        <ele>1012.2</ele>
        <time>2010-01-01T02:41:47Z</time>
      </trkpt>
      <trkpt lat="48.10209" lon="8.16759">
        <ele>1009.2</ele>
        <time>2010-01-01T02:41:54Z</time>
      </trkpt>
      <trkpt lat="48.10174" lon="8.16832">
        <ele>1007.8</ele>
        <time>2010-01-01T02:42:18Z</time>
      </trkpt>
      <trkpt lat="48.10133" lon="8.16931">
        <ele>997.6</ele>
        <time>2010-01-01T02:42:49Z</time>
      </trkpt>
      <trkpt lat="48.1014" lon="8.1699">
        <ele>997.3</ele>
        <time>2010-01-01T02:43:05Z</time>
      </trkpt>
      <trkpt lat="48.10155" lon="8.17041">
        <ele>999.9</ele>
        <time>2010-01-01T02:43:20Z</time>
      </trkpt>
      <trkpt lat="48.10161" lon="8.17096">
        <ele>997.5</ele>
        <time>2010-01-01T02:43:35Z</time>
      </trkpt>
      <trkpt lat="48.10154" lon="8.1719">
        <ele>997</ele>
        <time>2010-01-01T02:44:00Z</time>
      </trkpt>
      <trkpt lat="48.10194" lon="8.17215">
        <ele>999.8</ele>
        <time>2010-01-01T02:44:18Z</time>
      </trkpt>
      <trkpt lat="48.10233" lon="8.17262">
        <ele>1005.7</ele>
        <time>2010-01-01T02:44:38Z</time>
      </trkpt>
      <trkpt lat="48.10265" lon="8.17286">
        <ele>1011.8</ele>
        <time>2010-01-01T02:44:52Z</time>
      </trkpt>
      <trkpt lat="48.10292" lon="8.17294">
        <ele>1015.1</ele>
        <time>2010-01-01T02:45:03Z</time>
      </trkpt>
      <trkpt lat="48.10267" lon="8.1734">
        <ele>1020.2</ele>
        <time>2010-01-01T02:45:19Z</time>
      </trkpt>
      <trkpt lat="48.10241" lon="8.17401">
        <ele>1023.1</ele>
        <time>2010-01-01T02:45:38Z</time>
      </trkpt>
      <trkpt lat="48.10193" lon="8.17447">
        <ele>1023.2</ele>
        <time>2010-01-01T02:46:01Z</time>
      </trkpt>
      <trkpt lat="48.10169" lon="8.1751">
        <ele>1027.8</ele>
        <time>2010-01-01T02:46:21Z</time>
      </trkpt>
      <trkpt lat="48.10137" lon="8.17609">
        <ele>1033.7</ele>
        <time>2010-01-01T02:46:50Z</time>
      </trkpt>
      <trkpt lat="48.10092" lon="8.17775">
        <ele>1044.5</ele>
        <time>2010-01-01T02:47:38Z</time>
      </trkpt>
      <trkpt lat="48.10031" lon="8.17961">
        <ele>1055.9</ele>
        <time>2010-01-01T02:48:33Z</time>
      </trkpt>
      <trkpt lat="48.09983" lon="8.18109">
        <ele>1066.4</ele>
        <time>2010-01-01T02:49:17Z</time>
      </trkpt>
      <trkpt lat="48.09959" lon="8.18118">
        <ele>1064.6</ele>
        <time>2010-01-01T02:49:27Z</time>
      </trkpt>
      <trkpt lat="48.09933" lon="8.18104">
        <ele>1062.8</ele>
        <time>2010-01-01T02:49:39Z</time>
      </trkpt>
      <trkpt lat="48.09898" lon="8.18111">
        <ele>1063.7</ele>
        <time>2010-01-01T02:49:52Z</time>
      </trkpt>
      <trkpt lat="48.09819" lon="8.18117">
        <ele>1063.2</ele>
        <time>2010-01-01T02:50:24Z</time>
      </trkpt>
      <trkpt lat="48.09763" lon="8.18175">
        <ele>1067.4</ele>
        <time>2010-01-01T02:50:51Z</time>
      </trkpt>
      <trkpt lat="48.09681" lon="8.18147">
        <ele>1061.4</ele>
        <time>2010-01-01T02:51:25Z</time>
      </trkpt>
      <trkpt lat="48.0966" lon="8.18135">
        <ele>1057.2</ele>
        <time>2010-01-01T02:51:34Z</time>
      </trkpt>
      <trkpt lat="48.0962" lon="8.18217">
        <ele>1040.7</ele>
        <time>2010-01-01T02:52:01Z</time>
      </trkpt>
      <trkpt lat="48.09594" lon="8.18304">
        <ele>1038.2</ele>
        <time>2010-01-01T02:52:27Z</time>
      </trkpt>
      <trkpt lat="48.09594" lon="8.18368">
        <ele>1050.4</ele>
        <time>2010-01-01T02:52:44Z</time>
      </trkpt>
      <trkpt lat="48.09543" lon="8.18442">
        <ele>1054.3</ele>
        <time>2010-01-01T02:53:12Z</time>
      </trkpt>
      <trkpt lat="48.09523" lon="8.18417">
        <ele>1051.3</ele>
        <time>2010-01-01T02:53:23Z</time>
      </trkpt>
      <trkpt lat="48.0948" lon="8.18318">
        <ele>1037.9</ele>
        <time>2010-01-01T02:53:54Z</time>
      </trkpt>
      <trkpt lat="48.09415" lon="8.1818">
        <ele>1033.8</ele>
        <time>2010-01-01T02:54:39Z</time>
      </trkpt>
      <trkpt lat="48.09361" lon="8.18101">
        <ele>1026.5</ele>
        <time>2010-01-01T02:55:10Z</time>
      </trkpt>
      <trkpt lat="48.09319" lon="8.18075">
        <ele>1024.5</ele>
        <time>2010-01-01T02:55:28Z</time>
      </trkpt>
      <trkpt lat="48.09207" lon="8.18016">
        <ele>1008.5</ele>
        <time>2010-01-01T02:56:15Z</time>
      </trkpt>
      <trkpt lat="48.09193" lon="8.18027">
        <ele>1007.6</ele>
        <time>2010-01-01T02:56:21Z</time>
      </trkpt>
      <trkpt lat="48.09142" lon="8.18086">
        <ele>1006.1</ele>
        <time>2010-01-01T02:56:48Z</time>
      </trkpt>
      <trkpt lat="48.09062" lon="8.18142">
        <ele>987.1</ele>
        <time>2010-01-01T02:57:23Z</time>
      </trkpt>
      <trkpt lat="48.09291" lon="8.18768">
        <ele>1052.4</ele>
        <time>2010-01-01T03:00:33Z</time>
      </trkpt>
      <trkpt lat="48.09273" lon="8.18839">
        <ele>1053.6</ele>
        <time>2010-01-01T03:00:54Z</time>
      </trkpt>
      <trkpt lat="48.09184" lon="8.18861">
        <ele>1070.7</ele>
        <time>2010-01-01T03:01:30Z</time>
      </trkpt>
      <trkpt lat="48.0918" lon="8.18925">
        <ele>1071.7</ele>
        <time>2010-01-01T03:01:47Z</time>
      </trkpt>
      <trkpt lat="48.0917" lon="8.18937">
        <ele>1071.3</ele>
        <time>2010-01-01T03:01:52Z</time>
      </trkpt>
      <trkpt lat="48.09155" lon="8.18943">
        <ele>1071.5</ele>
        <time>2010-01-01T03:01:58Z</time>
      </trkpt>
      <trkpt lat="48.09088" lon="8.18909">
        <ele>1073.9</ele>
        <time>2010-01-01T03:02:27Z</time>
      </trkpt>
      <trkpt lat="48.09014" lon="8.18898">
        <ele>1078.8</ele>
        <time>2010-01-01T03:02:57Z</time>
      </trkpt>
      <trkpt lat="48.08952" lon="8.18963">
        <ele>1081.5</ele>
        <time>2010-01-01T03:03:27Z</time>
      </trkpt>
      <trkpt lat="48.08863" lon="8.1907">
        <ele>1076.5</ele>
        <time>2010-01-01T03:04:12Z</time>
      </trkpt>
      <trkpt lat="48.08865" lon="8.19206">
        <ele>1082.9</ele>
        <time>2010-01-01T03:04:49Z</time>
      </trkpt>
      <trkpt lat="48.08882" lon="8.19318">
        <ele>1074.8</ele>
        <time>2010-01-01T03:05:19Z</time>
      </trkpt>
      <trkpt lat="48.08881" lon="8.19379">
        <ele>1071.9</ele>
        <time>2010-01-01T03:05:36Z</time>
      </trkpt>
      <trkpt lat="48.0892" lon="8.19509">
        <ele>1065.8</ele>
        <time>2010-01-01T03:06:14Z</time>
      </trkpt>
      <trkpt lat="48.08827" lon="8.19575">
        <ele>1061.7</ele>
        <time>2010-01-01T03:06:55Z</time>
      </trkpt>
      <trkpt lat="48.08755" lon="8.19684">
        <ele>1042.8</ele>
        <time>2010-01-01T03:07:36Z</time>
      </trkpt>
      <trkpt lat="48.08745" lon="8.19751">
        <ele>1040</ele>
        <time>2010-01-01T03:07:54Z</time>
      </trkpt>
      <trkpt lat="48.08721" lon="8.19825">
        <ele>1042.9</ele>
        <time>2010-01-01T03:08:16Z</time>
      </trkpt>
      <trkpt lat="48.0865" lon="8.19906">
        <ele>1034.1</ele>
        <time>2010-01-01T03:08:52Z</time>
      </trkpt>
      <trkpt lat="48.08705" lon="8.20026">
        <ele>1047.5</ele>
        <time>2010-01-01T03:09:31Z</time>
      </trkpt>
      <trkpt lat="48.08583" lon="8.20225">
        <ele>1058.1</ele>
        <time>2010-01-01T03:10:43Z</time>
      </trkpt>
      <trkpt lat="48.08573" lon="8.20205">
        <ele>1053.8</ele>
        <time>2010-01-01T03:10:50Z</time>
      </trkpt>
      <trkpt lat="48.08503" lon="8.20304">
        <ele>1055.9</ele>
        <time>2010-01-01T03:11:28Z</time>
      </trkpt>
      <trkpt lat="48.0846" lon="8.20316">
        <ele>1046.5</ele>
        <time>2010-01-01T03:11:46Z</time>
      </trkpt>
      <trkpt lat="48.08424" lon="8.20459">
        <ele>1041</ele>
        <time>2010-01-01T03:12:27Z</time>
      </trkpt>
      <trkpt lat="48.08399" lon="8.20532">
        <ele>1047</ele>
        <time>2010-01-01T03:12:49Z</time>
      </trkpt>
      <trkpt lat="48.08415" lon="8.20639">
        <ele>1047.1</ele>
        <time>2010-01-01T03:13:18Z</time>
      </trkpt>
      <trkpt lat="48.08426" lon="8.20708">
        <ele>1046.3</ele>
        <time>2010-01-01T03:13:37Z</time>
      </trkpt>
      <trkpt lat="48.08467" lon="8.21036">
        <ele>1046.7</ele>
        <time>2010-01-01T03:15:06Z</time>
      </trkpt>
      <trkpt lat="48.08475" lon="8.21174">
        <ele>1043.6</ele>
        <time>2010-01-01T03:15:43Z</time>
      </trkpt>
      <trkpt lat="48.08432" lon="8.21527">
        <ele>1034.2</ele>
        <time>2010-01-01T03:17:19Z</time>
      </trkpt>
      <trkpt lat="48.08391" lon="8.21541">
        <ele>1029.7</ele>
        <time>2010-01-01T03:17:36Z</time>
      </trkpt>
      <trkpt lat="48.08338" lon="8.21596">
        <ele>1028.4</ele>
        <time>2010-01-01T03:18:02Z</time>
      </trkpt>
      <trkpt lat="48.08206" lon="8.21796">
        <ele>1041.3</ele>
        <time>2010-01-01T03:19:17Z</time>
      </trkpt>
      <trkpt lat="48.08128" lon="8.21834">
        <ele>1043.8</ele>
        <time>2010-01-01T03:19:50Z</time>
      </trkpt>
      <trkpt lat="48.08028" lon="8.21974">
        <ele>1043.9</ele>
        <time>2010-01-01T03:20:45Z</time>
      </trkpt>
      <trkpt lat="48.08048" lon="8.22256">
        <ele>1045.2</ele>
        <time>2010-01-01T03:22:00Z</time>
      </trkpt>
      <trkpt lat="48.08094" lon="8.2248">
        <ele>1045.6</ele>
        <time>2010-01-01T03:23:03Z</time>
      </trkpt>
      <trkpt lat="48.08078" lon="8.22692">
        <ele>1051.7</ele>
        <time>2010-01-01T03:24:00Z</time>
      </trkpt>
      <trkpt lat="48.08052" lon="8.22751">
        <ele>1052.9</ele>
        <time>2010-01-01T03:24:19Z</time>
      </trkpt>
      <trkpt lat="48.08051" lon="8.2287">
        <ele>1053</ele>
        <time>2010-01-01T03:24:51Z</time>
      </trkpt>
      <trkpt lat="48.0805" lon="8.22963">
        <ele>1047.2</ele>
        <time>2010-01-01T03:25:16Z</time>
      </trkpt>
      <trkpt lat="48.08168" lon="8.23318">
        <ele>1038.5</ele>
        <time>2010-01-01T03:27:02Z</time>
      </trkpt>
      <trkpt lat="48.08258" lon="8.2343">
        <ele>1030.7</ele>
        <time>2010-01-01T03:27:49Z</time>
      </trkpt>
      <trkpt lat="48.08329" lon="8.23533">
        <ele>1033</ele>
        <time>2010-01-01T03:28:28Z</time>
      </trkpt>
      <trkpt lat="48.0841" lon="8.23945">
        <ele>1033.2</ele>
        <time>2010-01-01T03:30:23Z</time>
      </trkpt>
      <trkpt lat="48.08522" lon="8.24447">
        <ele>1045.5</ele>
        <time>2010-01-01T03:32:45Z</time>
      </trkpt>
      <trkpt lat="48.08575" lon="8.24618">
        <ele>1043.9</ele>
        <time>2010-01-01T03:33:35Z</time>
      </trkpt>
      <trkpt lat="48.08632" lon="8.24732">
        <ele>1034.2</ele>
        <time>2010-01-01T03:34:13Z</time>
      </trkpt>
      <trkpt lat="48.08866" lon="8.24877">
        <ele>1044.6</ele>
        <time>2010-01-01T03:35:54Z</time>
      </trkpt>
      <trkpt lat="48.08961" lon="8.2495">
        <ele>1047.7</ele>
        <time>2010-01-01T03:36:37Z</time>
      </trkpt>
      <trkpt lat="48.09061" lon="8.24958">
        <ele>1047.2</ele>
        <time>2010-01-01T03:37:17Z</time>
      </trkpt>
      <trkpt lat="48.09165" lon="8.25026">
        <ele>1053.8</ele>
        <time>2010-01-01T03:38:03Z</time>
      </trkpt>
      <trkpt lat="48.09276" lon="8.25104">
        <ele>1053</ele>
        <time>2010-01-01T03:38:52Z</time>
      </trkpt>
      <trkpt lat="48.09363" lon="8.25234">
        <ele>1047.2</ele>
        <time>2010-01-01T03:39:41Z</time>
      </trkpt>
      <trkpt lat="48.09397" lon="8.25358">
        <ele>1044</ele>
        <time>2010-01-01T03:40:17Z</time>
      </trkpt>
      <trkpt lat="48.09428" lon="8.25392">
        <ele>1044.8</ele>
        <time>2010-01-01T03:40:32Z</time>
      </trkpt>
      <trkpt lat="48.09559" lon="8.25437">
        <ele>1035.5</ele>
        <time>2010-01-01T03:41:26Z</time>
      </trkpt>
      <trkpt lat="48.09643" lon="8.256">
        <ele>1024.9</ele>
        <time>2010-01-01T03:42:21Z</time>
      </trkpt>
      <trkpt lat="48.09617" lon="8.25773">
        <ele>1010.2</ele>
        <time>2010-01-01T03:43:08Z</time>
      </trkpt>
      <trkpt lat="48.09636" lon="8.25894">
        <ele>1005.3</ele>
        <time>2010-01-01T03:43:41Z</time>
      </trkpt>
      <trkpt lat="48.0959" lon="8.25975">
        <ele>995.2</ele>
        <time>2010-01-01T03:44:10Z</time>
      </trkpt>
      <trkpt lat="48.0962" lon="8.26256">
        <ele>982.7</ele>
        <time>2010-01-01T03:45:26Z</time>
      </trkpt>
      <trkpt lat="48.09601" lon="8.26516">
        <ele>971.1</ele>
        <time>2010-01-01T03:46:36Z</time>
      </trkpt>
      <trkpt lat="48.0961" lon="8.26809">
        <ele>969.4</ele>
        <time>2010-01-01T03:47:54Z</time>
      </trkpt>
      <trkpt lat="48.09561" lon="8.26955">
        <ele>963.9</ele>
        <time>2010-01-01T03:48:38Z</time>
      </trkpt>
      <trkpt lat="48.09543" lon="8.27097">
        <ele>961.6</ele>
        <time>2010-01-01T03:49:16Z</time>
      </trkpt>
      <trkpt lat="48.09575" lon="8.27178">
        <ele>973.1</ele>
        <time>2010-01-01T03:49:41Z</time>
      </trkpt>
      <trkpt lat="48.09604" lon="8.27262">
        <ele>980.3</ele>
        <time>2010-01-01T03:50:07Z</time>
      </trkpt>
      <trkpt lat="48.09644" lon="8.27243">
        <ele>985.4</ele>
        <time>2010-01-01T03:50:24Z</time>
      </trkpt>
      <trkpt lat="48.09687" lon="8.27338">
        <ele>998.1</ele>
        <time>2010-01-01T03:50:54Z</time>
      </trkpt>
      <trkpt lat="48.09701" lon="8.27376">
        <ele>1005.6</ele>
        <time>2010-01-01T03:51:06Z</time>
      </trkpt>
      <trkpt lat="48.09698" lon="8.27375">
        <ele>1004.9</ele>
        <time>2010-01-01T03:51:07Z</time>
      </trkpt>
      <trkpt lat="48.09725" lon="8.27426">
        <ele>1019.3</ele>
        <time>2010-01-01T03:51:24Z</time>
      </trkpt>
      <trkpt lat="48.09763" lon="8.27525">
        <ele>1028.7</ele>
        <time>2010-01-01T03:51:55Z</time>
      </trkpt>
      <trkpt lat="48.09785" lon="8.27555">
        <ele>1023.4</ele>
        <time>2010-01-01T03:52:07Z</time>
      </trkpt>
      <trkpt lat="48.09696" lon="8.27775">
        <ele>1021.4</ele>
        <time>2010-01-01T03:53:15Z</time>
      </trkpt>
      <trkpt lat="48.09659" lon="8.27947">
        <ele>1015.2</ele>
        <time>2010-01-01T03:54:04Z</time>
      </trkpt>
      <trkpt lat="48.09622" lon="8.28073">
        <ele>1013.8</ele>
        <time>2010-01-01T03:54:41Z</time>
      </trkpt>
      <trkpt lat="48.09566" lon="8.28153">
        <ele>1017.1</ele>
        <time>2010-01-01T03:55:11Z</time>
      </trkpt>
      <trkpt lat="48.09521" lon="8.28177">
        <ele>1017.7</ele>
        <time>2010-01-01T03:55:31Z</time>
      </trkpt>
      <trkpt lat="48.09501" lon="8.28208">
        <ele>1018</ele>
        <time>2010-01-01T03:55:42Z</time>
      </trkpt>
      <trkpt lat="48.09473" lon="8.28216">
        <ele>1017.3</ele>
        <time>2010-01-01T03:55:54Z</time>
      </trkpt>
      <trkpt lat="48.09406" lon="8.28186">
        <ele>1010.7</ele>
        <time>2010-01-01T03:56:21Z</time>
      </trkpt>
      <trkpt lat="48.09396" lon="8.28156">
        <ele>1010.3</ele>
        <time>2010-01-01T03:56:30Z</time>
      </trkpt>
      <trkpt lat="48.09368" lon="8.28107">
        <ele>1006.1</ele>
        <time>2010-01-01T03:56:48Z</time>
      </trkpt>
      <trkpt lat="48.09306" lon="8.28062">
        <ele>992.7</ele>
        <time>2010-01-01T03:57:15Z</time>
      </trkpt>
      <trkpt lat="48.09276" lon="8.28023">
        <ele>992.9</ele>
        <time>2010-01-01T03:57:31Z</time>
      </trkpt>
      <trkpt lat="48.09241" lon="8.2798">
        <ele>1000.4</ele>
        <time>2010-01-01T03:57:49Z</time>
      </trkpt>
      <trkpt lat="48.0918" lon="8.27962">
        <ele>1001.1</ele>
        <time>2010-01-01T03:58:14Z</time>
      </trkpt>
      <trkpt lat="48.09128" lon="8.27958">
        <ele>997.7</ele>
        <time>2010-01-01T03:58:35Z</time>
      </trkpt>
      <trkpt lat="48.09081" lon="8.27945">
        <ele>993.4</ele>
        <time>2010-01-01T03:58:54Z</time>
      </trkpt>
      <trkpt lat="48.09032" lon="8.27908">
        <ele>990.2</ele>
        <time>2010-01-01T03:59:16Z</time>
      </trkpt>
      <trkpt lat="48.09007" lon="8.27892">
        <ele>987.1</ele>
        <time>2010-01-01T03:59:27Z</time>
      </trkpt>
      <trkpt lat="48.0896" lon="8.27912">
        <ele>979.3</ele>
        <time>2010-01-01T03:59:46Z</time>
      </trkpt>
      <trkpt lat="48.08919" lon="8.27955">
        <ele>974.1</ele>
        <time>2010-01-01T04:00:06Z</time>
      </trkpt>
      <trkpt lat="48.08903" lon="8.27971">
        <ele>974</ele>
        <time>2010-01-01T04:00:14Z</time>
      </trkpt>
      <trkpt lat="48.0886" lon="8.27975">
        <ele>974.3</ele>
        <time>2010-01-01T04:00:32Z</time>
      </trkpt>
      <trkpt lat="48.0879" lon="8.27946">
        <ele>974.9</ele>
        <time>2010-01-01T04:01:01Z</time>
      </trkpt>
      <trkpt lat="48.08746" lon="8.27912">
        <ele>976.9</ele>
        <time>2010-01-01T04:01:20Z</time>
      </trkpt>
      <trkpt lat="48.08723" lon="8.27883">
        <ele>969.9</ele>
        <time>2010-01-01T04:01:33Z</time>
      </trkpt>
      <trkpt lat="48.08674" lon="8.27851">
        <ele>976</ele>
        <time>2010-01-01T04:01:54Z</time>
      </trkpt>
      <trkpt lat="48.0862" lon="8.27889">
        <ele>983.8</ele>
        <time>2010-01-01T04:02:18Z</time>
      </trkpt>
      <trkpt lat="48.08582" lon="8.27906">
        <ele>985.4</ele>
        <time>2010-01-01T04:02:34Z</time>
      </trkpt>
      <trkpt lat="48.08521" lon="8.2792">
        <ele>997.5</ele>
        <time>2010-01-01T04:02:58Z</time>
      </trkpt>
      <trkpt lat="48.08463" lon="8.27902">
        <ele>1005.6</ele>
        <time>2010-01-01T04:03:22Z</time>
      </trkpt>
      <trkpt lat="48.0841" lon="8.27868">
        <ele>1000.5</ele>
        <time>2010-01-01T04:03:45Z</time>
      </trkpt>
      <trkpt lat="48.0833" lon="8.27816">
        <ele>1005</ele>
        <time>2010-01-01T04:04:20Z</time>
      </trkpt>
      <trkpt lat="48.08313" lon="8.27816">
        <ele>1004.9</ele>
        <time>2010-01-01T04:04:27Z</time>
      </trkpt>
      <trkpt lat="48.08247" lon="8.27857">
        <ele>996.8</ele>
        <time>2010-01-01T04:04:55Z</time>
      </trkpt>
      <trkpt lat="48.08201" lon="8.27898">
        <ele>991.3</ele>
        <time>2010-01-01T04:05:17Z</time>
      </trkpt>
      <trkpt lat="48.08185" lon="8.27939">
        <ele>992.3</ele>
        <time>2010-01-01T04:05:30Z</time>
      </trkpt>
      <trkpt lat="48.08154" lon="8.27968">
        <ele>994.3</ele>
        <time>2010-01-01T04:05:44Z</time>
      </trkpt>
      <trkpt lat="48.08118" lon="8.27964">
        <ele>995.4</ele>
        <time>2010-01-01T04:05:59Z</time>
      </trkpt>
      <trkpt lat="48.08072" lon="8.27983">
        <ele>1001.5</ele>
        <time>2010-01-01T04:06:18Z</time>
      </trkpt>
      <trkpt lat="48.08056" lon="8.27999">
        <ele>1002</ele>
        <time>2010-01-01T04:06:26Z</time>
      </trkpt>
      <trkpt lat="48.08013" lon="8.28089">
        <ele>1016.3</ele>
        <time>2010-01-01T04:06:55Z</time>
      </trkpt>
      <trkpt lat="48.07974" lon="8.28119">
        <ele>1019.4</ele>
        <time>2010-01-01T04:07:13Z</time>
      </trkpt>
      <trkpt lat="48.07925" lon="8.28138">
        <ele>1010.1</ele>
        <time>2010-01-01T04:07:33Z</time>
      </trkpt>
      <trkpt lat="48.07892" lon="8.28155">
        <ele>1007</ele>
        <time>2010-01-01T04:07:47Z</time>
      </trkpt>
      <trkpt lat="48.07862" lon="8.28158">
        <ele>1007</ele>
        <time>2010-01-01T04:07:59Z</time>
      </trkpt>
      <trkpt lat="48.07822" lon="8.28137">
        <ele>1012</ele>
        <time>2010-01-01T04:08:16Z</time>
      </trkpt>
      <trkpt lat="48.07777" lon="8.28119">
        <ele>1014.9</ele>
        <time>2010-01-01T04:08:35Z</time>
      </trkpt>
      <trkpt lat="48.07739" lon="8.28119">
        <ele>1012.5</ele>
        <time>2010-01-01T04:08:50Z</time>
      </trkpt>
      <trkpt lat="48.07687" lon="8.2816">
        <ele>1011.6</ele>
        <time>2010-01-01T04:09:13Z</time>
      </trkpt>
      <trkpt lat="48.07635" lon="8.28225">
        <ele>1015.2</ele>
        <time>2010-01-01T04:09:40Z</time>
      </trkpt>
      <trkpt lat="48.07587" lon="8.28282">
        <ele>1013.8</ele>
        <time>2010-01-01T04:10:05Z</time>
      </trkpt>
      <trkpt lat="48.07527" lon="8.28332">
        <ele>1010.9</ele>
        <time>2010-01-01T04:10:32Z</time>
      </trkpt>
      <trkpt lat="48.07519" lon="8.28327">
        <ele>1010</ele>
        <time>2010-01-01T04:10:36Z</time>
      </trkpt>
      <trkpt lat="48.07512" lon="8.28312">
        <ele>1009.4</ele>
        <time>2010-01-01T04:10:41Z</time>
      </trkpt>
      <trkpt lat="48.0753" lon="8.28263">
        <ele>1012.8</ele>
        <time>2010-01-01T04:10:56Z</time>
      </trkpt>
      <trkpt lat="48.07549" lon="8.28192">
        <ele>1018</ele>
        <time>2010-01-01T04:11:16Z</time>
      </trkpt>
      <trkpt lat="48.07542" lon="8.28091">
        <ele>1024.8</ele>
        <time>2010-01-01T04:11:44Z</time>
      </trkpt>
      <trkpt lat="48.07515" lon="8.28021">
        <ele>1024.7</ele>
        <time>2010-01-01T04:12:05Z</time>
      </trkpt>
      <trkpt lat="48.07491" lon="8.27909">
        <ele>1031.5</ele>
        <time>2010-01-01T04:12:37Z</time>
      </trkpt>
      <trkpt lat="48.0749" lon="8.27883">
        <ele>1032.1</ele>
        <time>2010-01-01T04:12:44Z</time>
      </trkpt>
      <trkpt lat="48.07485" lon="8.27815">
        <ele>1031.9</ele>
        <time>2010-01-01T04:13:02Z</time>
      </trkpt>
      <trkpt lat="48.07441" lon="8.27655">
        <ele>1039.9</ele>
        <time>2010-01-01T04:13:48Z</time>
      </trkpt>
      <trkpt lat="48.07415" lon="8.2753">
        <ele>1045.7</ele>
        <time>2010-01-01T04:14:23Z</time>
      </trkpt>
      <trkpt lat="48.07383" lon="8.27275">
        <ele>1045.6</ele>
        <time>2010-01-01T04:15:33Z</time>
      </trkpt>
      <trkpt lat="48.07364" lon="8.27228">
        <ele>1046.1</ele>
        <time>2010-01-01T04:15:47Z</time>
      </trkpt>
      <trkpt lat="48.07348" lon="8.27167">
        <ele>1046.6</ele>
        <time>2010-01-01T04:16:05Z</time>
      </trkpt>
      <trkpt lat="48.07248" lon="8.26943">
        <ele>1048.1</ele>
        <time>2010-01-01T04:17:17Z</time>
      </trkpt>
      <trkpt lat="48.07082" lon="8.26961">
        <ele>1042.9</ele>
        <time>2010-01-01T04:18:23Z</time>
      </trkpt>
      <trkpt lat="48.06996" lon="8.26841">
        <ele>1050.9</ele>
        <time>2010-01-01T04:19:11Z</time>
      </trkpt>
      <trkpt lat="48.06957" lon="8.26806">
        <ele>1048.9</ele>
        <time>2010-01-01T04:19:29Z</time>
      </trkpt>
      <trkpt lat="48.06933" lon="8.26778">
        <ele>1048.6</ele>
        <time>2010-01-01T04:19:41Z</time>
      </trkpt>
      <trkpt lat="48.06781" lon="8.26782">
        <ele>1052.8</ele>
        <time>2010-01-01T04:20:42Z</time>
      </trkpt>
      <trkpt lat="48.0673" lon="8.2676">
        <ele>1051.4</ele>
        <time>2010-01-01T04:21:03Z</time>
      </trkpt>
      <trkpt lat="48.0664" lon="8.26723">
        <ele>1047.1</ele>
        <time>2010-01-01T04:21:40Z</time>
      </trkpt>
      <trkpt lat="48.06532" lon="8.26683">
        <ele>1050.3</ele>
        <time>2010-01-01T04:22:25Z</time>
      </trkpt>
      <trkpt lat="48.06468" lon="8.26678">
        <ele>1052.3</ele>
        <time>2010-01-01T04:22:51Z</time>
      </trkpt>
      <trkpt lat="48.06357" lon="8.26669">
        <ele>1060.8</ele>
        <time>2010-01-01T04:23:35Z</time>
      </trkpt>
      <trkpt lat="48.06176" lon="8.26598">
        <ele>1044.9</ele>
        <time>2010-01-01T04:24:50Z</time>
      </trkpt>
      <trkpt lat="48.05725" lon="8.26329">
        <ele>1027.1</ele>
        <time>2010-01-01T04:28:04Z</time>
      </trkpt>
      <trkpt lat="48.05539" lon="8.2638">
        <ele>1031.6</ele>
        <time>2010-01-01T04:29:20Z</time>
      </trkpt>
      <trkpt lat="48.05363" lon="8.26777">
        <ele>1036.9</ele>
        <time>2010-01-01T04:31:27Z</time>
      </trkpt>
      <trkpt lat="48.05307" lon="8.27157">
        <ele>1030.1</ele>
        <time>2010-01-01T04:33:12Z</time>
      </trkpt>
      <trkpt lat="48.05182" lon="8.27453">
        <ele>1022</ele>
        <time>2010-01-01T04:34:45Z</time>
      </trkpt>
      <trkpt lat="48.05164" lon="8.27422">
        <ele>1021.5</ele>
        <time>2010-01-01T04:34:56Z</time>
      </trkpt>
      <trkpt lat="48.05191" lon="8.27292">
        <ele>1016.7</ele>
        <time>2010-01-01T04:35:32Z</time>
      </trkpt>
      <trkpt lat="48.05207" lon="8.27118">
        <ele>1003.7</ele>
        <time>2010-01-01T04:36:20Z</time>
      </trkpt>
      <trkpt lat="48.05179" lon="8.26987">
        <ele>988.1</ele>
        <time>2010-01-01T04:36:56Z</time>
      </trkpt>
      <trkpt lat="48.05154" lon="8.2713">
        <ele>982.6</ele>
        <time>2010-01-01T04:37:36Z</time>
      </trkpt>
      <trkpt lat="48.05088" lon="8.27217">
        <ele>974.6</ele>
        <time>2010-01-01T04:38:11Z</time>
      </trkpt>
      <trkpt lat="48.05032" lon="8.27262">
        <ele>966.1</ele>
        <time>2010-01-01T04:38:37Z</time>
      </trkpt>
      <trkpt lat="48.04953" lon="8.27331">
        <ele>955</ele>
        <time>2010-01-01T04:39:13Z</time>
      </trkpt>
      <trkpt lat="48.04919" lon="8.27384">
        <ele>958.4</ele>
        <time>2010-01-01T04:39:33Z</time>
      </trkpt>
      <trkpt lat="48.04905" lon="8.27384">
        <ele>954.9</ele>
        <time>2010-01-01T04:39:39Z</time>
      </trkpt>
      <trkpt lat="48.04862" lon="8.27513">
        <ele>956.8</ele>
        <time>2010-01-01T04:40:17Z</time>
      </trkpt>
      <trkpt lat="48.04852" lon="8.27577">
        <ele>952.8</ele>
        <time>2010-01-01T04:40:35Z</time>
      </trkpt>
      <trkpt lat="48.04876" lon="8.27731">
        <ele>954.1</ele>
        <time>2010-01-01T04:41:17Z</time>
      </trkpt>
      <trkpt lat="48.04955" lon="8.27806">
        <ele>966.6</ele>
        <time>2010-01-01T04:41:54Z</time>
      </trkpt>
      <trkpt lat="48.05009" lon="8.27834">
        <ele>979.2</ele>
        <time>2010-01-01T04:42:18Z</time>
      </trkpt>
      <trkpt lat="48.05024" lon="8.27875">
        <ele>979.3</ele>
        <time>2010-01-01T04:42:30Z</time>
      </trkpt>
      <trkpt lat="48.05077" lon="8.28114">
        <ele>983.5</ele>
        <time>2010-01-01T04:43:37Z</time>
      </trkpt>
      <trkpt lat="48.05129" lon="8.28452">
        <ele>976.7</ele>
        <time>2010-01-01T04:45:10Z</time>
      </trkpt>
      <trkpt lat="48.05117" lon="8.2852">
        <ele>970.8</ele>
        <time>2010-01-01T04:45:29Z</time>
      </trkpt>
      <trkpt lat="48.05112" lon="8.28582">
        <ele>969</ele>
        <time>2010-01-01T04:45:46Z</time>
      </trkpt>
      <trkpt lat="48.05106" lon="8.28624">
        <ele>969</ele>
        <time>2010-01-01T04:45:57Z</time>
      </trkpt>
      <trkpt lat="48.05107" lon="8.28792">
        <ele>965.7</ele>
        <time>2010-01-01T04:46:42Z</time>
      </trkpt>
      <trkpt lat="48.05134" lon="8.2895">
        <ele>962.1</ele>
        <time>2010-01-01T04:47:26Z</time>
      </trkpt>
      <trkpt lat="48.05151" lon="8.29066">
        <ele>949.9</ele>
        <time>2010-01-01T04:47:58Z</time>
      </trkpt>
      <trkpt lat="48.05133" lon="8.29145">
        <ele>947.4</ele>
        <time>2010-01-01T04:48:20Z</time>
      </trkpt>
      <trkpt lat="48.05108" lon="8.29246">
        <ele>941.2</ele>
        <time>2010-01-01T04:48:49Z</time>
      </trkpt>
      <trkpt lat="48.05064" lon="8.29409">
        <ele>928.4</ele>
        <time>2010-01-01T04:49:36Z</time>
      </trkpt>
      <trkpt lat="48.05053" lon="8.29477">
        <ele>927.1</ele>
        <time>2010-01-01T04:49:54Z</time>
      </trkpt>
      <trkpt lat="48.0503" lon="8.29523">
        <ele>923</ele>
        <time>2010-01-01T04:50:10Z</time>
      </trkpt>
      <trkpt lat="48.04962" lon="8.2966">
        <ele>911.5</ele>
        <time>2010-01-01T04:50:56Z</time>
      </trkpt>
      <trkpt lat="48.049" lon="8.29822">
        <ele>894.5</ele>
        <time>2010-01-01T04:51:45Z</time>
      </trkpt>
      <trkpt lat="48.04936" lon="8.29846">
        <ele>897.4</ele>
        <time>2010-01-01T04:52:01Z</time>
      </trkpt>
      <trkpt lat="48.04994" lon="8.29843">
        <ele>897.8</ele>
        <time>2010-01-01T04:52:24Z</time>
      </trkpt>
      <trkpt lat="48.05101" lon="8.29826">
        <ele>908.5</ele>
        <time>2010-01-01T04:53:07Z</time>
      </trkpt>
      <trkpt lat="48.05114" lon="8.29888">
        <ele>896.4</ele>
        <time>2010-01-01T04:53:25Z</time>
      </trkpt>
      <trkpt lat="48.05152" lon="8.29909">
        <ele>891.4</ele>
        <time>2010-01-01T04:53:41Z</time>
      </trkpt>
      <trkpt lat="48.05191" lon="8.29952">
        <ele>873</ele>
        <time>2010-01-01T04:54:00Z</time>
      </trkpt>
      <trkpt lat="48.0516" lon="8.30005">
        <ele>871.1</ele>
        <time>2010-01-01T04:54:19Z</time>
      </trkpt>
      <trkpt lat="48.05117" lon="8.30083">
        <ele>855.1</ele>
        <time>2010-01-01T04:54:46Z</time>
      </trkpt>
      <trkpt lat="48.05101" lon="8.30114">
        <ele>844.2</ele>
        <time>2010-01-01T04:54:56Z</time>
      </trkpt>
      <trkpt lat="48.05111" lon="8.30135">
        <ele>839.4</ele>
        <time>2010-01-01T04:55:03Z</time>
      </trkpt>
      <trkpt lat="48.05117" lon="8.30148">
        <ele>836.1</ele>
        <time>2010-01-01T04:55:08Z</time>
      </trkpt>
      <trkpt lat="48.05111" lon="8.30154">
        <ele>833.5</ele>
        <time>2010-01-01T04:55:10Z</time>
      </trkpt>
      <trkpt lat="48.05088" lon="8.30143">
        <ele>833</ele>
        <time>2010-01-01T04:55:20Z</time>
      </trkpt>
      <trkpt lat="48.05081" lon="8.30151">
        <ele>830.5</ele>
        <time>2010-01-01T04:55:24Z</time>
      </trkpt>
      <trkpt lat="48.05084" lon="8.30166">
        <ele>827.2</ele>
        <time>2010-01-01T04:55:28Z</time>
      </trkpt>
      <trkpt lat="48.05085" lon="8.30197">
        <ele>822.7</ele>
        <time>2010-01-01T04:55:36Z</time>
      </trkpt>
      <trkpt lat="48.05028" lon="8.30217">
        <ele>828</ele>
        <time>2010-01-01T04:56:00Z</time>
      </trkpt>
      <trkpt lat="48.04954" lon="8.30192">
        <ele>834.7</ele>
        <time>2010-01-01T04:56:30Z</time>
      </trkpt>
      <trkpt lat="48.04846" lon="8.30264">
        <ele>819.2</ele>
        <time>2010-01-01T04:57:17Z</time>
      </trkpt>
      <trkpt lat="48.04831" lon="8.30258">
        <ele>822.3</ele>
        <time>2010-01-01T04:57:24Z</time>
      </trkpt>
      <trkpt lat="48.04795" lon="8.30287">
        <ele>828.2</ele>
        <time>2010-01-01T04:57:40Z</time>
      </trkpt>
      <trkpt lat="48.04773" lon="8.30299">
        <ele>828.3</ele>
        <time>2010-01-01T04:57:49Z</time>
      </trkpt>
      <trkpt lat="48.04745" lon="8.30305">
        <ele>827.3</ele>
        <time>2010-01-01T04:58:01Z</time>
      </trkpt>
      <trkpt lat="48.04721" lon="8.30277">
        <ele>828</ele>
        <time>2010-01-01T04:58:13Z</time>
      </trkpt>
      <trkpt lat="48.04711" lon="8.30233">
        <ele>833</ele>
        <time>2010-01-01T04:58:25Z</time>
      </trkpt>
      <trkpt lat="48.04703" lon="8.30164">
        <ele>839.8</ele>
        <time>2010-01-01T04:58:44Z</time>
      </trkpt>
      <trkpt lat="48.04692" lon="8.30077">
        <ele>835.5</ele>
        <time>2010-01-01T04:59:08Z</time>
      </trkpt>
      <trkpt lat="48.04695" lon="8.30022">
        <ele>838</ele>
        <time>2010-01-01T04:59:22Z</time>
      </trkpt>
      <trkpt lat="48.04696" lon="8.29948">
        <ele>837.7</ele>
        <time>2010-01-01T04:59:42Z</time>
      </trkpt>
      <trkpt lat="48.047" lon="8.29875">
        <ele>836.7</ele>
        <time>2010-01-01T05:00:02Z</time>
      </trkpt>
      <trkpt lat="48.04707" lon="8.29783">
        <ele>841.2</ele>
        <time>2010-01-01T05:00:27Z</time>
      </trkpt>
      <trkpt lat="48.04715" lon="8.29685">
        <ele>839.5</ele>
        <time>2010-01-01T05:00:53Z</time>
      </trkpt>
      <trkpt lat="48.04725" lon="8.29573">
        <ele>841</ele>
        <time>2010-01-01T05:01:23Z</time>
      </trkpt>
      <trkpt lat="48.04736" lon="8.29394">
        <ele>833.7</ele>
        <time>2010-01-01T05:02:11Z</time>
      </trkpt>
      <trkpt lat="48.04743" lon="8.29348">
        <ele>833.8</ele>
        <time>2010-01-01T05:02:24Z</time>
      </trkpt>
      <trkpt lat="48.0475" lon="8.29272">
        <ele>832.8</ele>
        <time>2010-01-01T05:02:44Z</time>
      </trkpt>
      <trkpt lat="48.04753" lon="8.29187">
        <ele>833.9</ele>
        <time>2010-01-01T05:03:07Z</time>
      </trkpt>
      <trkpt lat="48.04754" lon="8.29037">
        <ele>832.4</ele>
        <time>2010-01-01T05:03:47Z</time>
      </trkpt>
      <trkpt lat="48.04742" lon="8.28937">
        <ele>830.4</ele>
        <time>2010-01-01T05:04:15Z</time>
      </trkpt>
      <trkpt lat="48.04684" lon="8.28721">
        <ele>844.1</ele>
        <time>2010-01-01T05:05:17Z</time>
      </trkpt>
      <trkpt lat="48.04632" lon="8.28571">
        <ele>834</ele>
        <time>2010-01-01T05:06:02Z</time>
      </trkpt>
      <trkpt lat="48.04645" lon="8.28557">
        <ele>838.4</ele>
        <time>2010-01-01T05:06:08Z</time>
      </trkpt>
      <trkpt lat="48.04657" lon="8.28399">
        <ele>843.6</ele>
        <time>2010-01-01T05:06:51Z</time>
      </trkpt>
      <trkpt lat="48.04713" lon="8.28318">
        <ele>859.5</ele>
        <time>2010-01-01T05:07:22Z</time>
      </trkpt>
      <trkpt lat="48.04705" lon="8.28126">
        <ele>864.9</ele>
        <time>2010-01-01T05:08:13Z</time>
      </trkpt>
      <trkpt lat="48.04734" lon="8.27977">
        <ele>875.9</ele>
        <time>2010-01-01T05:08:55Z</time>
      </trkpt>
      <trkpt lat="48.04672" lon="8.27847">
        <ele>880</ele>
        <time>2010-01-01T05:09:37Z</time>
      </trkpt>
      <trkpt lat="48.04658" lon="8.27736">
        <ele>895.1</ele>
        <time>2010-01-01T05:10:08Z</time>
      </trkpt>
      <trkpt lat="48.04672" lon="8.27517">
        <ele>901.9</ele>
        <time>2010-01-01T05:11:07Z</time>
      </trkpt>
      <trkpt lat="48.04714" lon="8.27378">
        <ele>903.4</ele>
        <time>2010-01-01T05:11:47Z</time>
      </trkpt>
      <trkpt lat="48.04822" lon="8.27198">
        <ele>903.4</ele>
        <time>2010-01-01T05:12:52Z</time>
      </trkpt>
      <trkpt lat="48.05005" lon="8.2703">
        <ele>921.3</ele>
        <time>2010-01-01T05:14:18Z</time>
      </trkpt>
      <trkpt lat="48.0499" lon="8.26944">
        <ele>912.2</ele>
        <time>2010-01-01T05:14:42Z</time>
      </trkpt>
      <trkpt lat="48.05014" lon="8.26846">
        <ele>929.4</ele>
        <time>2010-01-01T05:15:10Z</time>
      </trkpt>
      <trkpt lat="48.0497" lon="8.26654">
        <ele>925.2</ele>
        <time>2010-01-01T05:16:04Z</time>
      </trkpt>
      <trkpt lat="48.04982" lon="8.26516">
        <ele>929.4</ele>
        <time>2010-01-01T05:16:42Z</time>
      </trkpt>
      <trkpt lat="48.04975" lon="8.26486">
        <ele>930.9</ele>
        <time>2010-01-01T05:16:50Z</time>
      </trkpt>
      <trkpt lat="48.04886" lon="8.26623">
        <ele>916.7</ele>
        <time>2010-01-01T05:17:42Z</time>
      </trkpt>
      <trkpt lat="48.0486" lon="8.26621">
        <ele>916.6</ele>
        <time>2010-01-01T05:17:52Z</time>
      </trkpt>
      <trkpt lat="48.04809" lon="8.26757">
        <ele>903.6</ele>
        <time>2010-01-01T05:18:34Z</time>
      </trkpt>
      <trkpt lat="48.04746" lon="8.26877">
        <ele>878.1</ele>
        <time>2010-01-01T05:19:14Z</time>
      </trkpt>
      <trkpt lat="48.04686" lon="8.26948">
        <ele>867.2</ele>
        <time>2010-01-01T05:19:45Z</time>
      </trkpt>
      <trkpt lat="48.04657" lon="8.26903">
        <ele>858.7</ele>
        <time>2010-01-01T05:20:02Z</time>
      </trkpt>
      <trkpt lat="48.04582" lon="8.26599">
        <ele>826.8</ele>
        <time>2010-01-01T05:21:28Z</time>
      </trkpt>
      <trkpt lat="48.04526" lon="8.26499">
        <ele>816.9</ele>
        <time>2010-01-01T05:22:03Z</time>
      </trkpt>
      <trkpt lat="48.04545" lon="8.26426">
        <ele>814.3</ele>
        <time>2010-01-01T05:22:24Z</time>
      </trkpt>
      <trkpt lat="48.04413" lon="8.26377">
        <ele>815.8</ele>
        <time>2010-01-01T05:23:19Z</time>
      </trkpt>
      <trkpt lat="48.04382" lon="8.2638">
        <ele>818.1</ele>
        <time>2010-01-01T05:23:31Z</time>
      </trkpt>
      <trkpt lat="48.04465" lon="8.26014">
        <ele>825.6</ele>
        <time>2010-01-01T05:25:15Z</time>
      </trkpt>
      <trkpt lat="48.04486" lon="8.25867">
        <ele>821</ele>
        <time>2010-01-01T05:25:55Z</time>
      </trkpt>
      <trkpt lat="48.04576" lon="8.25597">
        <ele>821.1</ele>
        <time>2010-01-01T05:27:15Z</time>
      </trkpt>
      <trkpt lat="48.04668" lon="8.25366">
        <ele>822.9</ele>
        <time>2010-01-01T05:28:28Z</time>
      </trkpt>
      <trkpt lat="48.04707" lon="8.25212">
        <ele>827.6</ele>
        <time>2010-01-01T05:29:12Z</time>
      </trkpt>
      <trkpt lat="48.04705" lon="8.25113">
        <ele>826.6</ele>
        <time>2010-01-01T05:29:38Z</time>
      </trkpt>
      <trkpt lat="48.04671" lon="8.24904">
        <ele>824.5</ele>
        <time>2010-01-01T05:30:36Z</time>
      </trkpt>
      <trkpt lat="48.04594" lon="8.24427">
        <ele>831.2</ele>
        <time>2010-01-01T05:32:47Z</time>
      </trkpt>
      <trkpt lat="48.04592" lon="8.24261">
        <ele>828.2</ele>
        <time>2010-01-01T05:33:31Z</time>
      </trkpt>
      <trkpt lat="48.04579" lon="8.24181">
        <ele>829.2</ele>
        <time>2010-01-01T05:33:53Z</time>
      </trkpt>
      <trkpt lat="48.04509" lon="8.24003">
        <ele>831</ele>
        <time>2010-01-01T05:34:49Z</time>
      </trkpt>
      <trkpt lat="48.04445" lon="8.23699">
        <ele>836.1</ele>
        <time>2010-01-01T05:36:14Z</time>
      </trkpt>
      <trkpt lat="48.04389" lon="8.23593">
        <ele>842.6</ele>
        <time>2010-01-01T05:36:50Z</time>
      </trkpt>
      <trkpt lat="48.04371" lon="8.23471">
        <ele>838</ele>
        <time>2010-01-01T05:37:23Z</time>
      </trkpt>
      <trkpt lat="48.04356" lon="8.23382">
        <ele>838</ele>
        <time>2010-01-01T05:37:48Z</time>
      </trkpt>
      <trkpt lat="48.04419" lon="8.2316">
        <ele>842.6</ele>
        <time>2010-01-01T05:38:52Z</time>
      </trkpt>
      <trkpt lat="48.04433" lon="8.23074">
        <ele>841.5</ele>
        <time>2010-01-01T05:39:16Z</time>
      </trkpt>
      <trkpt lat="48.04431" lon="8.23019">
        <ele>843.2</ele>
        <time>2010-01-01T05:39:31Z</time>
      </trkpt>
      <trkpt lat="48.04421" lon="8.2275">
        <ele>851.9</ele>
        <time>2010-01-01T05:40:43Z</time>
      </trkpt>
      <trkpt lat="48.04433" lon="8.22692">
        <ele>851.6</ele>
        <time>2010-01-01T05:40:59Z</time>
      </trkpt>
      <trkpt lat="48.04486" lon="8.22517">
        <ele>848.7</ele>
        <time>2010-01-01T05:41:51Z</time>
      </trkpt>
      <trkpt lat="48.04548" lon="8.22355">
        <ele>846.5</ele>
        <time>2010-01-01T05:42:41Z</time>
      </trkpt>
      <trkpt lat="48.04574" lon="8.22242">
        <ele>857.1</ele>
        <time>2010-01-01T05:43:13Z</time>
      </trkpt>
      <trkpt lat="48.04622" lon="8.22105">
        <ele>859.2</ele>
        <time>2010-01-01T05:43:54Z</time>
      </trkpt>
      <trkpt lat="48.04641" lon="8.22008">
        <ele>857.6</ele>
        <time>2010-01-01T05:44:21Z</time>
      </trkpt>
      <trkpt lat="48.04651" lon="8.21843">
        <ele>864.3</ele>
        <time>2010-01-01T05:45:05Z</time>
      </trkpt>
      <trkpt lat="48.0469" lon="8.21711">
        <ele>853.5</ele>
        <time>2010-01-01T05:45:44Z</time>
      </trkpt>
      <trkpt lat="48.04707" lon="8.21512">
        <ele>853</ele>
        <time>2010-01-01T05:46:38Z</time>
      </trkpt>
      <trkpt lat="48.04745" lon="8.21514">
        <ele>854</ele>
        <time>2010-01-01T05:46:53Z</time>
      </trkpt>
      <trkpt lat="48.04799" lon="8.21354">
        <ele>859.3</ele>
        <time>2010-01-01T05:47:41Z</time>
      </trkpt>
      <trkpt lat="48.04838" lon="8.21197">
        <ele>855.7</ele>
        <time>2010-01-01T05:48:25Z</time>
      </trkpt>
      <trkpt lat="48.04924" lon="8.20986">
        <ele>855.3</ele>
        <time>2010-01-01T05:49:32Z</time>
      </trkpt>
      <trkpt lat="48.04942" lon="8.2101">
        <ele>854.1</ele>
        <time>2010-01-01T05:49:41Z</time>
      </trkpt>
      <trkpt lat="48.04953" lon="8.20989">
        <ele>854.6</ele>
        <time>2010-01-01T05:49:48Z</time>
      </trkpt>
      <trkpt lat="48.04942" lon="8.20949">
        <ele>855.9</ele>
        <time>2010-01-01T05:50:00Z</time>
      </trkpt>
      <trkpt lat="48.04919" lon="8.20888">
        <ele>857</ele>
        <time>2010-01-01T05:50:19Z</time>
      </trkpt>
      <trkpt lat="48.04966" lon="8.20864">
        <ele>855.5</ele>
        <time>2010-01-01T05:50:39Z</time>
      </trkpt>
      <trkpt lat="48.05011" lon="8.20836">
        <ele>855.7</ele>
        <time>2010-01-01T05:50:58Z</time>
      </trkpt>
      <trkpt lat="48.05029" lon="8.20883">
        <ele>856</ele>
        <time>2010-01-01T05:51:13Z</time>
      </trkpt>
      <trkpt lat="48.05075" lon="8.20789">
        <ele>856.7</ele>
        <time>2010-01-01T05:51:44Z</time>
      </trkpt>
    </trkseg>
  </trk>
</gpx>